BA102 / G-ZBJC 7700 Squawk Report (19th of April, 2019)

Aircraft B788 Reg No. G-ZBJC Age 5 years old
Model 787 Jet engines 2 First flight 15-08-13
Registered 01-09-13 Rollout 06-05-13 Delivered 02-09-13
Construction No. 38611 Line No. 0114 Series 8
ADSHEX 406890 Airline name British Airways Owner N/A
Airfield based Heathrow~Gtr London~G First tracked 2017-07-13 13:03:00

Flight history for G-ZBJC

Route Flight No Date Playback
Heathrow (LHR) - Incheon International (ICN) BA17 2019-05-23 16:54:00
Baltimore Washington Intl (BWI) - Heathrow (LHR) BA228 2019-05-23 11:31:00
Heathrow (LHR) - Baltimore Washington Intl (BWI) BA229 2019-05-22 22:30:00
Rajiv Gandhi International Airport (HYD) - Heathrow (LHR) BA276 2019-05-22 15:14:00
Heathrow (LHR) - Rajiv Gandhi International Airport (HYD) BA277 2019-05-22 02:34:00
Louis Armstrong New Orleans Intl (MSY) - Heathrow (LHR) BA224 2019-05-21 14:05:00
Heathrow (LHR) - Louis Armstrong New Orleans Intl (MSY) BA225 2019-05-21 02:49:00
Rajiv Gandhi International Airport (HYD) - Heathrow (LHR) BA276 2019-05-20 14:47:00
Heathrow (LHR) - Rajiv Gandhi International Airport (HYD) BA277 2019-05-20 02:21:00
Louis Armstrong New Orleans Intl (MSY) - Heathrow (LHR) BA224 2019-05-19 14:14:00
Heathrow (LHR) - Louis Armstrong New Orleans Intl (MSY) BA225 2019-05-19 02:48:00
Pierre Elliott Trudeau (YUL) - Heathrow (LHR) BA94 2019-05-18 14:47:00
Heathrow (LHR) - Pierre Elliott Trudeau (YUL) BA95 2019-05-18 02:26:00
Incheon International (ICN) - Heathrow (LHR) BA18 2019-05-17 13:16:00
Heathrow (LHR) - Incheon International (ICN) BA17 2019-05-17 01:43:00
Incheon International (ICN) - Heathrow (LHR) BA18 2019-05-15 17:50:00
Heathrow (LHR) - Incheon International (ICN) BA17 2019-05-15 01:23:00
Kansai (KIX) - Heathrow (LHR) BA20 2019-05-13 18:57:00
Heathrow (LHR) - Kansai (KIX) BA19 2019-05-13 00:47:00
Pierre Elliott Trudeau (YUL) - Heathrow (LHR) BA94 2019-05-12 13:23:00
Time Lat Lon Altitude Heading Speed Vertical Rate
2019-04-19 12:32:11 GMT 51.475811 -0.473919 0 272 19 0
2019-04-19 12:32:04 GMT 51.475811 -0.472987 0 270 18 0
2019-04-19 12:31:39 GMT 51.475822 -0.469406 0 270 20 0
2019-04-19 12:29:15 GMT 51.477581 -0.455647 0 95 24 0
2019-04-19 12:29:02 GMT 51.477604 -0.459499 0 92 58 0
2019-04-19 12:28:55 GMT 51.477585 -0.462502 0 90 70 0
2019-04-19 12:28:38 GMT 51.477539 -0.475678 -350 89 139 -704
2019-04-19 12:28:32 GMT 51.477512 -0.480652 -350 89 139 -704
2019-04-19 12:28:26 GMT 51.477493 -0.486887 -275 89 139 -704
2019-04-19 12:28:23 GMT 51.477448 -0.490822 -225 90 138 -832
2019-04-19 12:28:18 GMT 51.477467 -0.494995 -175 89 137 -704
2019-04-19 12:28:14 GMT 51.477467 -0.499649 -125 89 136 -704
2019-04-19 12:28:10 GMT 51.477448 -0.502996 -100 90 136 -832
2019-04-19 12:28:07 GMT 51.477417 -0.507507 -25 89 136 -640
2019-04-19 12:28:03 GMT 51.477417 -0.510483 0 89 136 -640
2019-04-19 12:28:00 GMT 51.477417 -0.513535 25 90 136 -704
2019-04-19 12:27:56 GMT 51.477402 -0.518065 75 90 135 -704
2019-04-19 12:27:53 GMT 51.477417 -0.520935 100 90 136 -832
2019-04-19 12:27:49 GMT 51.477417 -0.525208 200 89 138 -832
2019-04-19 12:27:46 GMT 51.477371 -0.527649 225 89 139 -768
2019-04-19 12:27:43 GMT 51.477325 -0.531158 225 89 140 -1024
2019-04-19 12:27:40 GMT 51.477310 -0.533728 275 89 141 -768
2019-04-19 12:27:37 GMT 51.477280 -0.541763 350 89 142 -832
2019-04-19 12:27:33 GMT 51.477280 -0.541763 375 89 141 -704
2019-04-19 12:27:30 GMT 51.477264 -0.544417 400 89 140 -640
2019-04-19 12:27:27 GMT 51.477280 -0.547409 525 89 138 -704
2019-04-19 12:27:24 GMT 51.477234 -0.553360 525 89 139 -704
2019-04-19 12:27:18 GMT 51.477234 -0.557861 575 89 138 -768
2019-04-19 12:27:15 GMT 51.477184 -0.563431 600 89 139 -768
2019-04-19 12:27:12 GMT 51.477184 -0.563431 625 89 140 -768
2019-04-19 12:27:09 GMT 51.477173 -0.565796 675 89 141 -704
2019-04-19 12:27:06 GMT 51.477139 -0.570297 750 90 142 -704
2019-04-19 12:27:01 GMT 51.477184 -0.573807 775 89 146 -832
2019-04-19 12:26:58 GMT 51.477173 -0.577525 800 89 144 -640
2019-04-19 12:26:55 GMT 51.477127 -0.580345 800 89 145 -640
2019-04-19 12:26:51 GMT 51.477093 -0.585022 875 89 148 -704
2019-04-19 12:26:48 GMT 51.477093 -0.588303 925 89 150 -960
2019-04-19 12:26:45 GMT 51.477081 -0.591332 1,025 89 152 -1088
2019-04-19 12:26:42 GMT 51.477036 -0.599868 1,025 89 152 -768
2019-04-19 12:26:38 GMT 51.477036 -0.599868 1,075 89 152 -640
2019-04-19 12:26:34 GMT 51.477036 -0.603877 1,125 89 152 -768
2019-04-19 12:26:30 GMT 51.476997 -0.608978 1,175 89 152 -768
2019-04-19 12:26:27 GMT 51.476997 -0.611420 1,200 89 152 -768
2019-04-19 12:26:24 GMT 51.476952 -0.614777 1,575 89 153 -896
2019-04-19 12:26:21 GMT 51.476952 -0.622559 1,300 90 155 -896
2019-04-19 12:26:18 GMT 51.476952 -0.622559 1,350 89 157 -896
2019-04-19 12:26:14 GMT 51.476944 -0.627260 1,375 89 157 -832
2019-04-19 12:26:11 GMT 51.476906 -0.629959 1,425 89 157 -960
2019-04-19 12:26:08 GMT 51.476860 -0.639954 1,475 89 157 -896
2019-04-19 12:26:05 GMT 51.476860 -0.639954 1,575 89 158 -1024
2019-04-19 12:26:02 GMT 51.476852 -0.642181 1,625 89 159 -832
2019-04-19 12:25:59 GMT 51.476860 -0.643463 1,625 89 159 -832
2019-04-19 12:25:56 GMT 51.476814 -0.647964 1,625 89 159 -768
2019-04-19 12:25:53 GMT 51.476761 -0.655913 1,750 89 162 -896
2019-04-19 12:25:49 GMT 51.476761 -0.655913 1,750 89 162 -896
2019-04-19 12:25:46 GMT 51.476761 -0.659996 1,850 89 163 -1088
2019-04-19 12:25:43 GMT 51.476715 -0.664079 1,825 89 163 -1024
2019-04-19 12:25:40 GMT 51.476719 -0.666580 1,875 89 162 -1216
2019-04-19 12:25:37 GMT 51.476715 -0.670314 1,950 89 161 -1024
2019-04-19 12:25:34 GMT 51.476669 -0.674397 1,975 90 160 -704
2019-04-19 12:25:31 GMT 51.476669 -0.677886 2,100 89 158 -768
2019-04-19 12:25:28 GMT 51.476673 -0.681992 2,050 89 158 -896
2019-04-19 12:25:24 GMT 51.476624 -0.690802 2,200 89 158 -960
2019-04-19 12:25:21 GMT 51.476624 -0.690802 2,175 89 159 -896
2019-04-19 12:25:18 GMT 51.476582 -0.692520 2,175 89 159 -960
2019-04-19 12:25:15 GMT 51.476578 -0.696667 2,225 89 159 -768
2019-04-19 12:25:11 GMT 51.476536 -0.705490 2,275 89 160 -768
2019-04-19 12:25:08 GMT 51.476536 -0.705490 2,300 89 164 -960
2019-04-19 12:25:04 GMT 51.476532 -0.709435 2,350 89 164 -960
2019-04-19 12:25:01 GMT 51.476486 -0.713043 2,500 89 178 -960
2019-04-19 12:24:58 GMT 51.476440 -0.717010 2,450 89 171 -1088
2019-04-19 12:24:55 GMT 51.476440 -0.721163 2,525 89 173 -1152
2019-04-19 12:24:52 GMT 51.476440 -0.724281 2,600 89 175 -1024
2019-04-19 12:24:49 GMT 51.476395 -0.729180 2,725 89 176 -960
2019-04-19 12:24:46 GMT 51.476349 -0.732595 2,700 89 176 -1024
2019-04-19 12:24:43 GMT 51.476349 -0.736529 2,850 89 177 -960
2019-04-19 12:24:39 GMT 51.476303 -0.742023 2,800 89 177 -960
2019-04-19 12:24:36 GMT 51.476299 -0.746078 2,850 89 177 -960
2019-04-19 12:24:33 GMT 51.476303 -0.749297 3,050 89 177 -960
2019-04-19 12:24:30 GMT 51.476257 -0.754271 2,950 89 177 -1088
2019-04-19 12:24:27 GMT 51.476254 -0.756531 2,975 89 178 -1024
2019-04-19 12:24:23 GMT 51.476166 -0.763253 3,100 89 178 -1088
2019-04-19 12:24:20 GMT 51.476162 -0.766525 3,100 89 178 -1088
2019-04-19 12:24:17 GMT 51.476116 -0.771561 3,125 89 178 -1024
2019-04-19 12:24:14 GMT 51.476116 -0.774460 3,225 89 180 -1024
2019-04-19 12:24:11 GMT 51.476074 -0.778248 3,250 89 180 -1088
2019-04-19 12:24:08 GMT 51.476028 -0.782776 3,300 89 180 -1088
2019-04-19 12:24:05 GMT 51.476028 -0.786784 3,350 89 180 -1088
2019-04-19 12:24:02 GMT 51.475975 -0.790634 3,400 89 180 -1088
2019-04-19 12:23:59 GMT 51.475929 -0.795135 3,525 89 180 -1024
2019-04-19 12:23:55 GMT 51.475883 -0.801315 3,525 89 180 -1024
2019-04-19 12:23:52 GMT 51.475834 -0.804520 3,575 89 180 -1024
2019-04-19 12:23:46 GMT 51.475788 -0.811691 3,700 89 180 -960
2019-04-19 12:23:43 GMT 51.475754 -0.815512 3,775 90 179 -1024
2019-04-19 12:23:39 GMT 51.475708 -0.820857 3,775 89 179 -1024
2019-04-19 12:23:36 GMT 51.475742 -0.826263 3,825 90 179 -1024
2019-04-19 12:23:33 GMT 51.475742 -0.830002 3,850 90 179 -1024
2019-04-19 12:23:29 GMT 51.475834 -0.835266 3,950 92 178 -1024
2019-04-19 12:23:26 GMT 51.475929 -0.838928 4,000 93 177 -1024
2019-04-19 12:23:23 GMT 51.476067 -0.841827 4,175 109 176 -640
2019-04-19 12:23:20 GMT 51.476299 -0.845718 4,075 97 176 -896
2019-04-19 12:23:17 GMT 51.476814 -0.851440 4,225 111 177 -640
2019-04-19 12:23:14 GMT 51.477127 -0.854113 4,175 104 176 -704
2019-04-19 12:23:11 GMT 51.477604 -0.856781 4,175 107 176 -704
2019-04-19 12:23:08 GMT 51.478535 -0.860977 4,200 111 177 -640
2019-04-19 12:23:05 GMT 51.479931 -0.865631 4,275 118 176 -640
2019-04-19 12:23:02 GMT 51.480835 -0.868291 4,325 118 176 -576
2019-04-19 12:22:58 GMT 51.482712 -0.873784 4,325 118 176 -512
2019-04-19 12:22:54 GMT 51.483948 -0.877496 4,350 118 176 -512
2019-04-19 12:22:51 GMT 51.485332 -0.881500 4,375 118 176 -512
2019-04-19 12:22:47 GMT 51.486511 -0.884845 4,400 119 177 -576
2019-04-19 12:22:44 GMT 51.487984 -0.889130 4,450 119 177 -512
2019-04-19 12:22:41 GMT 51.489304 -0.892862 4,450 120 177 -576
2019-04-19 12:22:38 GMT 51.490723 -0.896722 4,500 121 177 -512
2019-04-19 12:22:35 GMT 51.491802 -0.899506 4,575 123 176 -512
2019-04-19 12:22:32 GMT 51.492687 -0.901718 4,525 123 176 -512
2019-04-19 12:22:28 GMT 51.495434 -0.907593 4,625 254 223 -576
2019-04-19 12:22:25 GMT 51.496811 -0.910009 4,625 134 177 -512
2019-04-19 12:22:22 GMT 51.498322 -0.912088 4,600 139 178 -512
2019-04-19 12:22:19 GMT 51.500694 -0.914688 4,650 177 186 -576
2019-04-19 12:22:16 GMT 51.502975 -0.916443 4,650 155 181 -576
2019-04-19 12:22:13 GMT 51.506046 -0.917892 4,700 167 184 -576
2019-04-19 12:22:10 GMT 51.507339 -0.918249 4,725 172 184 -576
2019-04-19 12:22:06 GMT 51.511868 -0.918732 4,775 181 187 -576
2019-04-19 12:22:02 GMT 51.514526 -0.918695 4,775 182 187 -576
2019-04-19 12:21:59 GMT 51.516769 -0.918546 4,825 183 187 -576
2019-04-19 12:21:56 GMT 51.520340 -0.918274 4,850 183 188 -640
2019-04-19 12:21:53 GMT 51.522491 -0.918101 4,900 184 188 -640
2019-04-19 12:21:50 GMT 51.525555 -0.917816 4,925 195 191 -576
2019-04-19 12:21:45 GMT 51.529045 -0.917511 5,025 203 194 -640
2019-04-19 12:21:42 GMT 51.532677 -0.917053 5,025 187 189 -640
2019-04-19 12:21:39 GMT 51.534584 -0.916672 5,025 188 189 -576
2019-04-19 12:21:35 GMT 51.540451 -0.914917 5,050 193 191 -576
2019-04-19 12:21:32 GMT 51.540451 -0.914917 5,075 196 192 -576
2019-04-19 12:21:29 GMT 51.543274 -0.913424 5,125 205 195 -640
2019-04-19 12:21:25 GMT 51.546661 -0.910529 5,150 215 199 -640
2019-04-19 12:21:22 GMT 51.549248 -0.907440 5,200 220 201 -640
2019-04-19 12:21:19 GMT 51.550831 -0.904922 5,225 228 203 -640
2019-04-19 12:21:15 GMT 51.553436 -0.899914 5,250 235 207 -512
2019-04-19 12:21:11 GMT 51.555626 -0.894547 5,325 256 224 -576
2019-04-19 12:21:08 GMT 51.556961 -0.890932 5,300 241 213 -384
2019-04-19 12:21:05 GMT 51.558327 -0.886841 5,300 243 215 -384
2019-04-19 12:21:02 GMT 51.559753 -0.881653 5,325 256 228 -576
2019-04-19 12:20:59 GMT 51.561489 -0.873032 5,400 256 228 -576
2019-04-19 12:20:56 GMT 51.561489 -0.873032 5,400 256 226 -576
2019-04-19 12:20:53 GMT 51.562134 -0.869256 5,425 255 245 -576
2019-04-19 12:20:50 GMT 51.563309 -0.861969 5,425 256 228 -576
2019-04-19 12:20:47 GMT 51.563725 -0.859299 5,450 256 229 -576
2019-04-19 12:20:44 GMT 51.565292 -0.849585 5,575 256 233 -576
2019-04-19 12:20:38 GMT 51.567078 -0.838623 5,550 256 234 -576
2019-04-19 12:20:35 GMT 51.567078 -0.838623 5,550 256 235 -576
2019-04-19 12:20:29 GMT 51.568939 -0.827408 5,625 256 238 -576
2019-04-19 12:20:26 GMT 51.569592 -0.823288 5,650 256 240 -576
2019-04-19 12:20:23 GMT 51.570522 -0.817795 5,650 256 241 -576
2019-04-19 12:20:19 GMT 51.571640 -0.811157 5,725 255 245 -640
2019-04-19 12:20:16 GMT 51.572617 -0.805206 5,725 255 245 -640
2019-04-19 12:20:12 GMT 51.573643 -0.799255 5,775 255 246 -640
2019-04-19 12:20:08 GMT 51.575089 -0.790941 5,875 255 247 -640
2019-04-19 12:20:04 GMT 51.576389 -0.783691 5,875 255 247 -768
2019-04-19 12:20:01 GMT 51.578064 -0.774155 5,925 255 247 -768
2019-04-19 12:19:58 GMT 51.578064 -0.774155 5,925 255 248 -704
2019-04-19 12:19:55 GMT 51.578949 -0.769196 5,975 255 248 -768
2019-04-19 12:19:52 GMT 51.579784 -0.764542 6,050 254 249 -768
2019-04-19 12:19:49 GMT 51.580952 -0.758209 6,050 254 249 -768
2019-04-19 12:19:46 GMT 51.581726 -0.753751 6,050 254 248 -768
2019-04-19 12:19:43 GMT 51.583145 -0.745957 6,125 254 248 -768
2019-04-19 12:19:40 GMT 51.584015 -0.741354 6,150 254 249 -640
2019-04-19 12:19:37 GMT 51.585022 -0.736084 6,225 254 249 -576
2019-04-19 12:19:34 GMT 51.585800 -0.731779 6,250 254 249 -768
2019-04-19 12:19:31 GMT 51.586910 -0.725937 6,250 254 249 -768
2019-04-19 12:19:28 GMT 51.587769 -0.721535 6,250 254 249 -768
2019-04-19 12:19:25 GMT 51.589783 -0.710845 6,325 254 249 -704
2019-04-19 12:19:22 GMT 51.589783 -0.710845 6,375 254 250 -704
2019-04-19 12:19:19 GMT 51.590881 -0.705203 6,375 254 250 -768
2019-04-19 12:19:16 GMT 51.592216 -0.698242 6,425 253 252 -768
2019-04-19 12:19:13 GMT 51.592987 -0.694069 6,450 253 253 -768
2019-04-19 12:19:10 GMT 51.593891 -0.689240 6,825 182 256 -832
2019-04-19 12:19:07 GMT 51.594776 -0.684509 6,525 254 254 -576
2019-04-19 12:19:04 GMT 51.595798 -0.679092 6,550 253 255 -768
2019-04-19 12:19:01 GMT 51.598267 -0.666428 6,625 253 256 -704
2019-04-19 12:18:58 GMT 51.598267 -0.666428 6,625 253 256 -768
2019-04-19 12:18:55 GMT 51.599430 -0.660248 7,425 227 260 -896
2019-04-19 12:18:52 GMT 51.600174 -0.656433 6,700 253 256 -768
2019-04-19 12:18:49 GMT 51.601433 -0.650024 6,775 253 256 -768
2019-04-19 12:18:46 GMT 51.602455 -0.644608 6,775 253 256 -768
2019-04-19 12:18:43 GMT 51.603157 -0.640945 6,850 253 256 -768
2019-04-19 12:18:40 GMT 51.604706 -0.633124 6,850 253 256 -768
2019-04-19 12:18:37 GMT 51.605667 -0.628002 6,875 253 257 -768
2019-04-19 12:18:34 GMT 51.606537 -0.623623 6,925 253 257 -768
2019-04-19 12:18:31 GMT 51.607590 -0.618129 7,000 252 258 -896
2019-04-19 12:18:28 GMT 51.610046 -0.606308 7,025 251 258 -896
2019-04-19 12:18:22 GMT 51.611115 -0.601654 7,125 248 258 -832
2019-04-19 12:18:19 GMT 51.612606 -0.595932 7,125 246 259 -832
2019-04-19 12:18:16 GMT 51.613861 -0.591554 7,200 242 260 -896
2019-04-19 12:18:13 GMT 51.616150 -0.585245 7,200 231 260 -896
2019-04-19 12:18:09 GMT 51.618576 -0.579900 7,250 227 260 -896
2019-04-19 12:18:06 GMT 51.621635 -0.574722 7,325 221 260 -896
2019-04-19 12:18:02 GMT 51.624298 -0.571141 7,350 219 259 -896
2019-04-19 12:17:59 GMT 51.631599 -0.564117 7,425 208 259 -896
2019-04-19 12:17:56 GMT 51.631599 -0.564117 7,450 204 258 -896
2019-04-19 12:17:53 GMT 51.633835 -0.562668 7,525 190 257 -896
2019-04-19 12:17:50 GMT 51.637115 -0.560971 7,575 184 256 -896
2019-04-19 12:17:47 GMT 51.640137 -0.559783 7,575 190 257 -896
2019-04-19 12:17:44 GMT 51.645424 -0.558624 7,600 187 256 -896
2019-04-19 12:17:41 GMT 51.648731 -0.558243 7,650 183 256 -896
2019-04-19 12:17:38 GMT 51.651104 -0.558090 7,700 181 253 -832
2019-04-19 12:17:35 GMT 51.655853 -0.557938 7,950 182 256 -896
2019-04-19 12:17:32 GMT 51.659389 -0.557785 7,800 182 256 -896
2019-04-19 12:17:29 GMT 51.662338 -0.557630 7,850 182 256 -1024
2019-04-19 12:17:26 GMT 51.669434 -0.557333 7,950 182 256 -1024
2019-04-19 12:17:23 GMT 51.673462 -0.557185 7,975 182 255 -960
2019-04-19 12:17:20 GMT 51.676617 -0.557098 7,975 182 255 -960
2019-04-19 12:17:17 GMT 51.676617 -0.557098 8,050 182 255 -960
2019-04-19 12:17:14 GMT 51.680283 -0.556962 8,200 182 255 -960
2019-04-19 12:17:11 GMT 51.683689 -0.556870 8,100 182 255 -960
2019-04-19 12:17:08 GMT 51.687229 -0.556717 8,150 182 254 -896
2019-04-19 12:17:04 GMT 51.692394 -0.556564 8,250 182 253 -832
2019-04-19 12:17:01 GMT 51.696400 -0.556412 8,250 181 253 -768
2019-04-19 12:16:58 GMT 51.698639 -0.556368 8,425 181 254 -1344
2019-04-19 12:16:55 GMT 51.707291 -0.556220 8,400 181 254 -1408
2019-04-19 12:16:52 GMT 51.707291 -0.556220 8,975 179 253 -1472
2019-04-19 12:16:49 GMT 51.709526 -0.556259 8,650 178 253 -1408
2019-04-19 12:16:46 GMT 51.713718 -0.556412 8,550 177 252 -1344
2019-04-19 12:16:43 GMT 51.716400 -0.556517 8,600 175 251 -1152
2019-04-19 12:16:40 GMT 51.720001 -0.556946 8,650 175 251 -1152
2019-04-19 12:16:37 GMT 51.724731 -0.558076 8,750 167 251 -1024
2019-04-19 12:16:31 GMT 51.732651 -0.562159 8,825 154 250 -1088
2019-04-19 12:16:25 GMT 51.736622 -0.565567 8,900 147 248 -1216
2019-04-19 12:16:22 GMT 51.739273 -0.568466 9,025 142 248 -1152
2019-04-19 12:16:19 GMT 51.742813 -0.572922 9,075 139 248 -1088
2019-04-19 12:16:15 GMT 51.749050 -0.581512 9,150 139 251 -832
2019-04-19 12:16:12 GMT 51.749050 -0.581512 9,175 139 249 -1024
2019-04-19 12:16:09 GMT 51.752029 -0.585632 9,300 139 250 -896
2019-04-19 12:16:06 GMT 51.754211 -0.588659 9,600 139 252 -832
2019-04-19 12:16:03 GMT 51.755894 -0.590973 9,275 139 250 -832
2019-04-19 12:16:00 GMT 51.758423 -0.594524 9,325 139 252 -832
2019-04-19 12:15:57 GMT 51.763596 -0.601650 9,400 139 255 -1600
2019-04-19 12:15:51 GMT 51.766880 -0.606232 9,500 139 254 -1280
2019-04-19 12:15:48 GMT 51.768951 -0.609073 9,525 139 255 -1344
2019-04-19 12:15:45 GMT 51.772339 -0.613750 9,650 139 255 -1600
2019-04-19 12:15:42 GMT 51.774376 -0.616608 9,600 139 255 -1600
2019-04-19 12:15:39 GMT 51.777878 -0.621470 9,750 139 256 -1664
2019-04-19 12:15:36 GMT 51.780029 -0.624513 9,875 139 256 -1664
2019-04-19 12:15:33 GMT 51.783173 -0.628891 9,875 139 256 -1600
2019-04-19 12:15:30 GMT 51.785316 -0.631866 10,025 139 259 -1280
2019-04-19 12:15:27 GMT 51.788086 -0.635722 10,050 139 258 -1664
2019-04-19 12:15:24 GMT 51.790237 -0.638766 10,075 139 256 -1600
2019-04-19 12:15:21 GMT 51.794113 -0.644150 10,275 139 258 -1600
2019-04-19 12:15:18 GMT 51.796005 -0.646783 10,325 139 258 -1600
2019-04-19 12:15:15 GMT 51.798889 -0.650791 10,350 139 258 -1600
2019-04-19 12:15:12 GMT 51.801888 -0.654984 10,450 139 258 -1472
2019-04-19 12:15:09 GMT 51.804108 -0.658140 10,500 139 259 -1344
2019-04-19 12:15:06 GMT 51.810036 -0.666351 10,650 139 260 -1216
2019-04-19 12:15:03 GMT 51.810036 -0.666351 10,675 139 262 -1088
2019-04-19 12:14:57 GMT 51.816273 -0.675125 10,725 138 263 -1088
2019-04-19 12:14:54 GMT 51.818573 -0.678332 10,800 138 265 -1280
2019-04-19 12:14:51 GMT 51.821365 -0.682192 10,850 139 265 -1408
2019-04-19 12:14:48 GMT 51.823673 -0.685501 10,925 139 267 -1600
2019-04-19 12:14:45 GMT 51.826950 -0.690060 11,100 139 274 -1216
2019-04-19 12:14:42 GMT 51.829010 -0.692955 11,150 139 275 -1216
2019-04-19 12:14:39 GMT 51.832809 -0.698226 11,200 139 276 -1216
2019-04-19 12:14:36 GMT 51.834732 -0.700898 11,200 139 277 -1216
2019-04-19 12:14:33 GMT 51.837963 -0.705414 11,275 139 294 -1472
2019-04-19 12:14:30 GMT 51.842010 -0.711068 11,325 139 285 -1088
2019-04-19 12:14:27 GMT 51.843506 -0.713120 11,350 139 288 -1216
2019-04-19 12:14:24 GMT 51.846905 -0.717926 11,375 139 289 -1216
2019-04-19 12:14:21 GMT 51.852951 -0.726360 12,225 139 305 -1792
2019-04-19 12:14:18 GMT 51.856632 -0.731506 11,550 139 297 -1536
2019-04-19 12:14:15 GMT 51.856632 -0.731506 11,850 139 304 -1728
2019-04-19 12:14:12 GMT 51.859222 -0.735193 11,700 139 303 -1728
2019-04-19 12:14:09 GMT 51.862919 -0.740356 11,800 139 303 -1728
2019-04-19 12:14:06 GMT 51.866455 -0.745289 11,950 138 304 -1792
2019-04-19 12:14:03 GMT 51.872406 -0.753603 13,225 133 336 -1216
2019-04-19 12:14:00 GMT 51.872406 -0.753603 12,250 138 306 -2048
2019-04-19 12:13:57 GMT 51.876251 -0.759022 12,125 138 306 -1984
2019-04-19 12:13:54 GMT 51.878048 -0.761566 12,175 138 306 -1984
2019-04-19 12:13:51 GMT 51.881790 -0.766816 12,400 138 306 -2048
2019-04-19 12:13:48 GMT 51.884052 -0.769958 12,375 138 306 -1984
2019-04-19 12:13:45 GMT 51.887741 -0.775278 12,550 138 306 -1984
2019-04-19 12:13:42 GMT 51.891266 -0.780258 13,225 133 336 -1216
2019-04-19 12:13:39 GMT 51.894482 -0.784816 12,775 138 308 -1216
2019-04-19 12:13:36 GMT 51.898342 -0.790309 12,875 138 308 -1216
2019-04-19 12:13:33 GMT 51.901886 -0.795364 12,825 138 311 -1024
2019-04-19 12:13:30 GMT 51.907001 -0.802551 12,950 138 314 -896
2019-04-19 12:13:24 GMT 51.911377 -0.808751 13,075 138 318 -704
2019-04-19 12:13:21 GMT 51.913754 -0.812204 13,000 138 317 -768
2019-04-19 12:13:18 GMT 51.917175 -0.817032 13,075 138 318 -704
2019-04-19 12:13:15 GMT 51.920410 -0.821542 13,125 138 320 -704
2019-04-19 12:13:12 GMT 51.923527 -0.826015 13,100 138 321 -704
2019-04-19 12:13:09 GMT 51.928070 -0.832596 13,150 137 324 -640
2019-04-19 12:13:06 GMT 51.930954 -0.836868 13,175 137 325 -704
2019-04-19 12:13:03 GMT 51.934841 -0.842651 13,250 136 327 -704
2019-04-19 12:13:00 GMT 51.937027 -0.845947 13,275 136 328 -768
2019-04-19 12:12:57 GMT 51.940247 -0.850830 13,325 136 331 -1024
2019-04-19 12:12:54 GMT 51.944870 -0.858002 13,350 136 331 -1088
2019-04-19 12:12:51 GMT 51.947411 -0.861956 13,400 135 332 -1344
2019-04-19 12:12:48 GMT 51.954021 -0.872393 13,500 135 333 -1408
2019-04-19 12:12:45 GMT 51.954021 -0.872393 13,525 135 333 -1408
2019-04-19 12:12:42 GMT 51.957001 -0.877075 13,575 136 334 -1408
2019-04-19 12:12:39 GMT 51.960342 -0.882263 13,675 135 335 -1344
2019-04-19 12:12:36 GMT 51.963562 -0.887303 13,725 135 335 -1344
2019-04-19 12:12:33 GMT 51.967026 -0.892715 13,800 135 335 -1280
2019-04-19 12:12:30 GMT 51.971291 -0.899702 14,025 131 340 -1216
2019-04-19 12:12:27 GMT 51.974396 -0.905075 13,925 131 358 -1152
2019-04-19 12:12:24 GMT 51.980927 -0.916966 14,000 131 339 -1152
2019-04-19 12:12:21 GMT 51.983734 -0.922089 14,075 131 343 -1600
2019-04-19 12:12:18 GMT 51.986664 -0.927505 14,100 131 342 -1344
2019-04-19 12:12:15 GMT 51.986664 -0.927505 14,150 131 342 -1344
2019-04-19 12:12:12 GMT 51.990330 -0.934230 14,850 131 343 -1664
2019-04-19 12:12:09 GMT 51.992004 -0.937291 14,225 131 342 -1408
2019-04-19 12:12:06 GMT 51.995453 -0.943604 14,300 131 342 -1472
2019-04-19 12:12:03 GMT 52.001411 -0.954712 14,450 131 343 -1664
2019-04-19 12:12:00 GMT 52.005367 -0.962088 14,475 131 343 -1664
2019-04-19 12:11:57 GMT 52.005367 -0.962088 15,000 131 359 -1216
2019-04-19 12:11:54 GMT 52.008408 -0.967712 14,675 131 343 -1536
2019-04-19 12:11:51 GMT 52.011749 -0.973892 14,850 131 345 -896
2019-04-19 12:11:48 GMT 52.014862 -0.979691 14,775 131 344 -1280
2019-04-19 12:11:45 GMT 52.017380 -0.984421 14,825 131 357 -1024
2019-04-19 12:11:42 GMT 52.023617 -0.995911 14,900 131 347 -256
2019-04-19 12:11:39 GMT 52.026901 -1.001968 16,000 131 363 -1664
2019-04-19 12:11:36 GMT 52.026901 -1.001968 14,925 131 351 -640
2019-04-19 12:11:33 GMT 52.030411 -1.008545 14,975 131 353 -704
2019-04-19 12:11:30 GMT 52.034409 -1.015930 14,975 131 354 -896
2019-04-19 12:11:26 GMT 52.038071 -1.022720 15,025 131 357 -1024
2019-04-19 12:11:23 GMT 52.043930 -1.033554 15,075 131 358 -1152
2019-04-19 12:11:20 GMT 52.043930 -1.033554 15,100 131 358 -1152
2019-04-19 12:11:14 GMT 52.051685 -1.047939 15,250 131 360 -1344
2019-04-19 12:11:11 GMT 52.055225 -1.054452 15,275 131 362 -1408
2019-04-19 12:11:08 GMT 52.057343 -1.058350 15,350 130 371 -1472
2019-04-19 12:11:04 GMT 52.061649 -1.066302 15,500 131 367 -1472
2019-04-19 12:11:01 GMT 52.065079 -1.072617 15,575 131 363 -1536
2019-04-19 12:10:58 GMT 52.069424 -1.080505 15,775 131 367 -1472
2019-04-19 12:10:55 GMT 52.071655 -1.084586 15,700 131 365 -1472
2019-04-19 12:10:52 GMT 52.074589 -1.089922 15,800 131 365 -1472
2019-04-19 12:10:49 GMT 52.078537 -1.097107 15,800 131 365 -1472
2019-04-19 12:10:46 GMT 52.081879 -1.103210 15,925 131 367 -1472
2019-04-19 12:10:43 GMT 52.089439 -1.117074 16,000 131 366 -1408
2019-04-19 12:10:40 GMT 52.089439 -1.117074 16,100 131 368 -1472
2019-04-19 12:10:34 GMT 52.096607 -1.130336 16,225 131 369 -1472
2019-04-19 12:10:31 GMT 52.102242 -1.140773 16,325 131 369 -1472
2019-04-19 12:10:28 GMT 52.102242 -1.140773 16,325 131 369 -1472
2019-04-19 12:10:25 GMT 52.106060 -1.147836 16,375 130 370 -1472
2019-04-19 12:10:22 GMT 52.109985 -1.155243 16,600 130 370 -1472
2019-04-19 12:10:19 GMT 52.116859 -1.168082 16,650 130 371 -1472
2019-04-19 12:10:16 GMT 52.116859 -1.168082 16,650 130 372 -1536
2019-04-19 12:10:13 GMT 52.119644 -1.173325 16,700 130 372 -1536
2019-04-19 12:10:10 GMT 52.122261 -1.178205 16,875 130 372 -1536
2019-04-19 12:10:07 GMT 52.126190 -1.185608 16,825 130 374 -1536
2019-04-19 12:10:04 GMT 52.130264 -1.193237 16,925 130 374 -1536
2019-04-19 12:10:01 GMT 52.131943 -1.196411 16,975 130 374 -1536
2019-04-19 12:09:58 GMT 52.136925 -1.205750 17,225 130 374 -1536
2019-04-19 12:09:54 GMT 52.140785 -1.212969 17,125 130 374 -1536
2019-04-19 12:09:51 GMT 52.144650 -1.220189 17,475 130 382 -1600
2019-04-19 12:09:48 GMT 52.148209 -1.226807 17,450 130 375 -1536
2019-04-19 12:09:45 GMT 52.154472 -1.238552 17,425 130 377 -1536
2019-04-19 12:09:42 GMT 52.158337 -1.245850 17,475 130 377 -1536
2019-04-19 12:09:39 GMT 52.158337 -1.245850 17,525 130 377 -1536
2019-04-19 12:09:35 GMT 52.162079 -1.252899 17,575 130 377 -1536
2019-04-19 12:09:32 GMT 52.166656 -1.261520 17,675 130 378 -1600
2019-04-19 12:09:29 GMT 52.171513 -1.270804 17,825 130 378 -1600
2019-04-19 12:09:23 GMT 52.176075 -1.279515 17,925 130 379 -1536
2019-04-19 12:09:20 GMT 52.178822 -1.284694 17,975 130 379 -1600
2019-04-19 12:09:17 GMT 52.182129 -1.291046 18,075 130 380 -1600
2019-04-19 12:09:14 GMT 52.186783 -1.299918 18,150 130 380 -1600
2019-04-19 12:09:11 GMT 52.188599 -1.303449 18,250 130 382 -1600
2019-04-19 12:09:08 GMT 52.192970 -1.311689 18,400 130 382 -1600
2019-04-19 12:09:05 GMT 52.196503 -1.318512 18,400 130 382 -1600
2019-04-19 12:09:02 GMT 52.199707 -1.324615 18,575 130 383 -1536
2019-04-19 12:08:59 GMT 52.203308 -1.331386 18,550 130 385 -1536
2019-04-19 12:08:56 GMT 52.205822 -1.336173 18,650 130 385 -1536
2019-04-19 12:08:53 GMT 52.210243 -1.344491 18,825 130 386 -1536
2019-04-19 12:08:50 GMT 52.214897 -1.353280 18,725 130 386 -1536
2019-04-19 12:08:47 GMT 52.218063 -1.359253 18,800 130 386 -1536
2019-04-19 12:08:44 GMT 52.224998 -1.372192 18,925 131 388 -1472
2019-04-19 12:08:41 GMT 52.224998 -1.372192 18,975 131 388 -1472
2019-04-19 12:08:38 GMT 52.228867 -1.379471 19,075 130 389 -1536
2019-04-19 12:08:35 GMT 52.235733 -1.392365 19,175 130 390 -1472
2019-04-19 12:08:32 GMT 52.235733 -1.392365 19,250 130 392 -1536
2019-04-19 12:08:29 GMT 52.238068 -1.396866 19,275 130 392 -1472
2019-04-19 12:08:26 GMT 52.241714 -1.403739 19,325 130 393 -1664
2019-04-19 12:08:23 GMT 52.245296 -1.410488 19,400 130 392 -1664
2019-04-19 12:08:20 GMT 52.250000 -1.419434 19,475 130 393 -1664
2019-04-19 12:08:17 GMT 52.255726 -1.430185 19,700 130 394 -1664
2019-04-19 12:08:11 GMT 52.260361 -1.438980 19,750 130 394 -1664
2019-04-19 12:08:08 GMT 52.263824 -1.445487 19,850 130 395 -1728
2019-04-19 12:08:05 GMT 52.267273 -1.452026 19,925 130 396 -1664
2019-04-19 12:08:02 GMT 52.270889 -1.458817 19,975 130 397 -1664
2019-04-19 12:07:59 GMT 52.274963 -1.466522 20,025 130 397 -1664
2019-04-19 12:07:55 GMT 52.278763 -1.473770 20,175 130 397 -1664
2019-04-19 12:07:52 GMT 52.282261 -1.480329 20,300 130 398 -1664
2019-04-19 12:07:49 GMT 52.286957 -1.489182 20,350 130 399 -1664
2019-04-19 12:07:46 GMT 52.290298 -1.495590 20,450 130 399 -1664
2019-04-19 12:07:43 GMT 52.293804 -1.502223 21,325 130 399 -1664
2019-04-19 12:07:40 GMT 52.297482 -1.509051 20,575 130 401 -1664
2019-04-19 12:07:37 GMT 52.301346 -1.516349 20,700 131 401 -1664
2019-04-19 12:07:34 GMT 52.305130 -1.523361 20,800 131 401 -1664
2019-04-19 12:07:31 GMT 52.307957 -1.528591 20,875 131 402 -1728
2019-04-19 12:07:28 GMT 52.312099 -1.536360 20,900 131 402 -1728
2019-04-19 12:07:25 GMT 52.316391 -1.544342 21,000 131 403 -1792
2019-04-19 12:07:22 GMT 52.321564 -1.553955 21,175 131 404 -1792
2019-04-19 12:07:16 GMT 52.326344 -1.562962 21,350 131 404 -1792
2019-04-19 12:07:13 GMT 52.331280 -1.572065 21,375 131 406 -1792
2019-04-19 12:07:09 GMT 52.340729 -1.589565 21,575 131 406 -1728
2019-04-19 12:07:05 GMT 52.340729 -1.589565 21,575 131 406 -1728
2019-04-19 12:07:02 GMT 52.344086 -1.595764 21,675 131 407 -1792
2019-04-19 12:06:59 GMT 52.348572 -1.604080 21,775 131 410 -1792
2019-04-19 12:06:56 GMT 52.352180 -1.610753 21,875 131 408 -1728
2019-04-19 12:06:53 GMT 52.354649 -1.615383 21,925 131 408 -1792
2019-04-19 12:06:50 GMT 52.358650 -1.622838 22,050 131 410 -1792
2019-04-19 12:06:47 GMT 52.361397 -1.627938 22,500 130 418 -1920
2019-04-19 12:06:44 GMT 52.367172 -1.638611 22,225 131 411 -1792
2019-04-19 12:06:41 GMT 52.370270 -1.644440 22,350 131 411 -1792
2019-04-19 12:06:37 GMT 52.375305 -1.653748 22,400 131 412 -1920
2019-04-19 12:06:34 GMT 52.380066 -1.662674 22,425 131 411 -1856
2019-04-19 12:06:31 GMT 52.387299 -1.676254 22,625 130 413 -1920
2019-04-19 12:06:28 GMT 52.387299 -1.676254 22,675 130 413 -1920
2019-04-19 12:06:25 GMT 52.390320 -1.681976 22,775 130 414 -1920
2019-04-19 12:06:22 GMT 52.394302 -1.689529 23,250 130 426 -1984
2019-04-19 12:06:19 GMT 52.397049 -1.694717 22,925 130 414 -1856
2019-04-19 12:06:15 GMT 52.401535 -1.703262 23,075 130 414 -1856
2019-04-19 12:06:12 GMT 52.406693 -1.713004 23,175 130 415 -1920
2019-04-19 12:06:09 GMT 52.410465 -1.720145 24,050 130 421 -1984
2019-04-19 12:06:06 GMT 52.414856 -1.728439 23,425 130 416 -1856
2019-04-19 12:06:03 GMT 52.416824 -1.732254 23,425 130 417 -1856
2019-04-19 12:06:00 GMT 52.422592 -1.743317 23,900 130 418 -1920
2019-04-19 12:05:57 GMT 52.424988 -1.747846 23,625 130 418 -1920
2019-04-19 12:05:54 GMT 52.430145 -1.757660 23,700 130 418 -1920
2019-04-19 12:05:51 GMT 52.436069 -1.769034 23,850 130 419 -1984
2019-04-19 12:05:48 GMT 52.436069 -1.769034 23,950 130 421 -1984
2019-04-19 12:05:45 GMT 52.440216 -1.776962 24,400 130 419 -1984
2019-04-19 12:05:41 GMT 52.445145 -1.786377 24,200 130 421 -1984
2019-04-19 12:05:38 GMT 52.453857 -1.803055 24,325 130 422 -1984
2019-04-19 12:05:35 GMT 52.453857 -1.803055 24,400 130 422 -1984
2019-04-19 12:05:32 GMT 52.456039 -1.807173 24,475 130 422 -1984
2019-04-19 12:05:29 GMT 52.460724 -1.816177 24,525 130 422 -1984
2019-04-19 12:05:26 GMT 52.463745 -1.821976 24,575 130 422 -1984
2019-04-19 12:05:23 GMT 52.472008 -1.837777 24,800 130 423 -1984
2019-04-19 12:05:20 GMT 52.472008 -1.837777 24,825 130 424 -1984
2019-04-19 12:05:17 GMT 52.476471 -1.846313 24,975 130 424 -1984
2019-04-19 12:05:14 GMT 52.480316 -1.853638 25,050 130 425 -1984
2019-04-19 12:05:11 GMT 52.483505 -1.859750 25,250 130 425 -1984
2019-04-19 12:05:08 GMT 52.488113 -1.868539 25,175 130 425 -1984
2019-04-19 12:05:05 GMT 52.490021 -1.872253 25,400 130 426 -1984
2019-04-19 12:05:02 GMT 52.495796 -1.883292 25,450 130 427 -1984
2019-04-19 12:04:59 GMT 52.498215 -1.887894 25,875 130 429 -1984
2019-04-19 12:04:56 GMT 52.501705 -1.894592 25,725 130 429 -1984
2019-04-19 12:04:53 GMT 52.506729 -1.904144 25,675 130 429 -1984
2019-04-19 12:04:50 GMT 52.511482 -1.913269 25,850 130 429 -1984
2019-04-19 12:04:44 GMT 52.518185 -1.926139 26,800 130 431 -1984
2019-04-19 12:04:41 GMT 52.522202 -1.933823 26,175 130 432 -1984
2019-04-19 12:04:37 GMT 52.526047 -1.941299 26,500 130 433 -1984
2019-04-19 12:04:34 GMT 52.530716 -1.950226 26,325 130 432 -1984
2019-04-19 12:04:31 GMT 52.535782 -1.959961 26,775 130 447 -1856
2019-04-19 12:04:28 GMT 52.538902 -1.966003 26,700 130 434 -2048
2019-04-19 12:04:25 GMT 52.543716 -1.975174 26,625 130 448 -1856
2019-04-19 12:04:22 GMT 52.551144 -1.989467 26,800 130 435 -1984
2019-04-19 12:04:19 GMT 52.553101 -1.993256 26,850 130 435 -1984
2019-04-19 12:04:13 GMT 52.562302 -2.010803 27,100 130 438 -1984
2019-04-19 12:04:10 GMT 52.562302 -2.010803 27,200 130 437 -1984
2019-04-19 12:04:07 GMT 52.566879 -2.019601 27,200 130 437 -1984
2019-04-19 12:04:04 GMT 52.570045 -2.025643 27,350 130 438 -1984
2019-04-19 12:04:01 GMT 52.577545 -2.040024 28,225 130 451 -2048
2019-04-19 12:03:55 GMT 52.583633 -2.051620 27,700 130 440 -1984
2019-04-19 12:03:52 GMT 52.586288 -2.056656 27,825 130 441 -1984
2019-04-19 12:03:48 GMT 52.591179 -2.066057 27,875 130 441 -1984
2019-04-19 12:03:44 GMT 52.597046 -2.077201 28,025 130 441 -1984
2019-04-19 12:03:41 GMT 52.601002 -2.084891 28,225 130 443 -1984
2019-04-19 12:03:38 GMT 52.605148 -2.092743 28,325 130 443 -1984
2019-04-19 12:03:35 GMT 52.608730 -2.099644 28,275 130 443 -2048
2019-04-19 12:03:32 GMT 52.612106 -2.106018 28,450 130 443 -1984
2019-04-19 12:03:29 GMT 52.617016 -2.115496 28,525 130 445 -1984
2019-04-19 12:03:26 GMT 52.621067 -2.123186 29,625 130 457 -1984
2019-04-19 12:03:23 GMT 52.625069 -2.130877 28,775 130 446 -1984
2019-04-19 12:03:20 GMT 52.629913 -2.140058 28,775 130 446 -1984
2019-04-19 12:03:17 GMT 52.631699 -2.143402 28,900 130 447 -1984
2019-04-19 12:03:14 GMT 52.635727 -2.151184 28,925 130 447 -1984
2019-04-19 12:03:11 GMT 52.640854 -2.160950 29,100 130 448 -2048
2019-04-19 12:03:08 GMT 52.645752 -2.170181 29,200 130 448 -2048
2019-04-19 12:03:05 GMT 52.649929 -2.178196 29,275 130 448 -2048
2019-04-19 12:03:02 GMT 52.658478 -2.194519 29,700 130 450 -2048
2019-04-19 12:02:59 GMT 52.658478 -2.194519 29,525 130 451 -2048
2019-04-19 12:02:56 GMT 52.661335 -2.199934 29,575 130 451 -2048
2019-04-19 12:02:53 GMT 52.666222 -2.209272 29,650 130 451 -2048
2019-04-19 12:02:50 GMT 52.668690 -2.213981 29,875 130 452 -2048
2019-04-19 12:02:46 GMT 52.674694 -2.225438 29,950 130 453 -1984
2019-04-19 12:02:43 GMT 52.678791 -2.233285 30,075 130 453 -1984
2019-04-19 12:02:40 GMT 52.682465 -2.240295 30,325 130 455 -1984
2019-04-19 12:02:36 GMT 52.688736 -2.252350 30,250 130 454 -1984
2019-04-19 12:02:33 GMT 52.692989 -2.260515 30,425 130 455 -1984
2019-04-19 12:02:30 GMT 52.696529 -2.267343 30,500 130 455 -1984
2019-04-19 12:02:27 GMT 52.701096 -2.276001 30,550 130 456 -1984
2019-04-19 12:02:24 GMT 52.706039 -2.285461 30,675 130 458 -1984
2019-04-19 12:02:21 GMT 52.710030 -2.293161 30,775 130 459 -2048
2019-04-19 12:02:18 GMT 52.712631 -2.298126 30,775 130 458 -1984
2019-04-19 12:02:15 GMT 52.718315 -2.309012 30,925 130 459 -2048
2019-04-19 12:02:12 GMT 52.725082 -2.322006 31,150 130 460 -1984
2019-04-19 12:02:06 GMT 52.730232 -2.331848 31,250 130 461 -1984
2019-04-19 12:02:03 GMT 52.732979 -2.337184 31,325 130 462 -1984
2019-04-19 12:02:00 GMT 52.739124 -2.348955 31,475 130 463 -1984
2019-04-19 12:01:57 GMT 52.741871 -2.354370 31,625 130 465 -1984
2019-04-19 12:01:54 GMT 52.746735 -2.363739 31,750 130 465 -2048
2019-04-19 12:01:51 GMT 52.751644 -2.373125 31,800 130 465 -1984
2019-04-19 12:01:48 GMT 52.754562 -2.378769 34,000 131 488 -2176
2019-04-19 12:01:44 GMT 52.761017 -2.391205 32,000 130 467 -1984
2019-04-19 12:01:41 GMT 52.764954 -2.398758 32,125 131 502 -2112
2019-04-19 12:01:38 GMT 52.768173 -2.404986 32,125 130 468 -2048
2019-04-19 12:01:34 GMT 52.775116 -2.418289 32,325 130 470 -2048
2019-04-19 12:01:31 GMT 52.779205 -2.426174 32,400 130 470 -2048
2019-04-19 12:01:28 GMT 52.782761 -2.432938 32,525 130 471 -2048
2019-04-19 12:01:25 GMT 52.786839 -2.440848 33,100 130 472 -2048
2019-04-19 12:01:21 GMT 52.793884 -2.454147 32,800 131 473 -2048
2019-04-19 12:01:18 GMT 52.797318 -2.460632 32,850 131 474 -2048
2019-04-19 12:01:15 GMT 52.802490 -2.470398 33,000 131 474 -2048
2019-04-19 12:01:12 GMT 52.806110 -2.477182 33,100 131 475 -2048
2019-04-19 12:01:09 GMT 52.810593 -2.485657 33,175 131 475 -2048
2019-04-19 12:01:06 GMT 52.814213 -2.492484 33,275 131 476 -2048
2019-04-19 12:01:03 GMT 52.819290 -2.502060 34,250 131 483 -2112
2019-04-19 12:01:00 GMT 52.824360 -2.511632 33,500 131 478 -2048
2019-04-19 12:00:57 GMT 52.828583 -2.519608 33,650 131 479 -2048
2019-04-19 12:00:54 GMT 52.832230 -2.526463 33,700 131 479 -2048
2019-04-19 12:00:51 GMT 52.837769 -2.536900 33,775 131 480 -2048
2019-04-19 12:00:48 GMT 52.842190 -2.545218 33,925 131 481 -2048
2019-04-19 12:00:45 GMT 52.846008 -2.552359 34,150 131 482 -2048
2019-04-19 12:00:42 GMT 52.849545 -2.558951 34,300 131 483 -2112
2019-04-19 12:00:39 GMT 52.854527 -2.568368 34,175 131 482 -2112
2019-04-19 12:00:36 GMT 52.859276 -2.577236 34,600 131 483 -2112
2019-04-19 12:00:33 GMT 52.867840 -2.593323 34,450 131 484 -2112
2019-04-19 12:00:30 GMT 52.867840 -2.593323 34,675 131 486 -2112
2019-04-19 12:00:27 GMT 52.872711 -2.602463 34,625 131 485 -2112
2019-04-19 12:00:24 GMT 52.875523 -2.607762 34,750 131 486 -2112
2019-04-19 12:00:21 GMT 52.880829 -2.617885 34,875 131 486 -2112
2019-04-19 12:00:18 GMT 52.884521 -2.624893 34,925 131 486 -2112
2019-04-19 12:00:15 GMT 52.891342 -2.637787 35,900 131 493 -2112
2019-04-19 12:00:12 GMT 52.894867 -2.644501 35,175 131 489 -2112
2019-04-19 12:00:09 GMT 52.898438 -2.651291 35,200 131 489 -2112
2019-04-19 12:00:06 GMT 52.902603 -2.659149 35,475 131 491 -2112
2019-04-19 12:00:03 GMT 52.906769 -2.667084 35,450 131 490 -2176
2019-04-19 12:00:00 GMT 52.911255 -2.675476 35,575 131 491 -2112
2019-04-19 11:59:57 GMT 52.917252 -2.686768 35,650 131 492 -2112
2019-04-19 11:59:54 GMT 52.921143 -2.694092 35,775 131 492 -2112
2019-04-19 11:59:51 GMT 52.930637 -2.711975 36,000 131 493 -2112
2019-04-19 11:59:48 GMT 52.930637 -2.711975 36,050 131 493 -2112
2019-04-19 11:59:45 GMT 52.933823 -2.717896 36,425 131 497 -2112
2019-04-19 11:59:42 GMT 52.939671 -2.729004 36,225 131 495 -2112
2019-04-19 11:59:39 GMT 52.943481 -2.736053 36,325 131 495 -2112
2019-04-19 11:59:36 GMT 52.953636 -2.755136 36,525 131 498 -2112
2019-04-19 11:59:32 GMT 52.953636 -2.755136 36,550 131 498 -2048
2019-04-19 11:59:29 GMT 52.958954 -2.765121 36,675 131 498 -2048
2019-04-19 11:59:26 GMT 52.964622 -2.775696 36,725 131 498 -2048
2019-04-19 11:59:23 GMT 52.966763 -2.779698 36,825 131 500 -2048
2019-04-19 11:59:20 GMT 52.973373 -2.791977 37,000 131 501 -2112
2019-04-19 11:59:17 GMT 52.978638 -2.801666 37,100 131 502 -2176
2019-04-19 11:59:11 GMT 52.986694 -2.816544 37,250 131 502 -2176
2019-04-19 11:59:08 GMT 52.990879 -2.824271 37,900 131 502 -2112
2019-04-19 11:59:05 GMT 52.995987 -2.833710 37,500 131 503 -2176
2019-04-19 11:59:01 GMT 53.002003 -2.844910 37,675 131 503 -2112
2019-04-19 11:58:58 GMT 53.006332 -2.852992 37,750 131 502 -2176
2019-04-19 11:58:55 GMT 53.011223 -2.862174 37,875 131 503 -2112
2019-04-19 11:58:51 GMT 53.016586 -2.872314 38,050 131 503 -2048
2019-04-19 11:58:48 GMT 53.027142 -2.892308 38,100 131 503 -2048
2019-04-19 11:58:45 GMT 53.027142 -2.892308 38,275 131 504 -2368
2019-04-19 11:58:42 GMT 53.032242 -2.901917 38,350 131 505 -2624
2019-04-19 11:58:39 GMT 53.036819 -2.910614 38,425 131 504 -2752
2019-04-19 11:58:36 GMT 53.044510 -2.925110 38,750 131 504 -2944
2019-04-19 11:58:33 GMT 53.049255 -2.934134 38,925 131 503 -3008
2019-04-19 11:58:30 GMT 53.049255 -2.934134 38,975 131 503 -3008
2019-04-19 11:58:27 GMT 53.055119 -2.945121 39,350 131 502 -2944
2019-04-19 11:58:24 GMT 53.058609 -2.951813 39,525 131 502 -3008
2019-04-19 11:58:21 GMT 53.063187 -2.960510 39,350 131 502 -2944
2019-04-19 11:58:18 GMT 53.067642 -2.968898 39,675 131 502 -2880
2019-04-19 11:58:15 GMT 53.072811 -2.978707 39,775 131 502 -2752
2019-04-19 11:58:12 GMT 53.076488 -2.985692 39,850 131 502 -2752
2019-04-19 11:58:06 GMT 53.087311 -3.006210 40,100 131 501 -2560
2019-04-19 11:58:03 GMT 53.094955 -3.020706 40,250 131 501 -2496
2019-04-19 11:58:00 GMT 53.100128 -3.030500 40,550 131 501 -2176
2019-04-19 11:57:57 GMT 53.100128 -3.030500 40,650 131 501 -1984
2019-04-19 11:57:54 GMT 53.105770 -3.041193 40,600 131 501 -1984
2019-04-19 11:57:51 GMT 53.110050 -3.049352 40,775 131 502 -1664
2019-04-19 11:57:48 GMT 53.112946 -3.054827 40,725 131 502 -1664
2019-04-19 11:57:45 GMT 53.119080 -3.066441 40,925 131 503 -1088
2019-04-19 11:57:42 GMT 53.122147 -3.072248 40,875 131 503 -1024
2019-04-19 11:57:39 GMT 53.127789 -3.083038 40,950 131 503 -704
2019-04-19 11:57:36 GMT 53.131943 -3.090846 40,950 131 503 -704
2019-04-19 11:57:33 GMT 53.135605 -3.097831 41,000 131 501 0
2019-04-19 11:57:30 GMT 53.142452 -3.110908 41,000 131 501 -64
2019-04-19 11:57:27 GMT 53.151299 -3.127711 40,975 131 501 0
2019-04-19 11:57:24 GMT 53.151299 -3.127711 40,975 131 501 0
2019-04-19 11:57:21 GMT 53.154190 -3.133222 41,000 131 501 -64
2019-04-19 11:57:18 GMT 53.158722 -3.141933 40,975 131 501 -64
2019-04-19 11:57:15 GMT 53.168472 -3.160531 40,975 131 501 -64
2019-04-19 11:57:09 GMT 53.172569 -3.168344 41,000 131 501 -64
2019-04-19 11:57:06 GMT 53.176853 -3.176503 41,000 131 501 -64
2019-04-19 11:57:03 GMT 53.182625 -3.187489 41,000 131 501 -64
2019-04-19 11:57:00 GMT 53.185501 -3.193019 41,000 131 501 -64
2019-04-19 11:56:57 GMT 53.195381 -3.211885 41,000 131 501 -64
2019-04-19 11:56:54 GMT 53.201153 -3.222952 41,000 131 501 -64
2019-04-19 11:56:51 GMT 53.201153 -3.222952 41,000 130 501 -64
2019-04-19 11:56:48 GMT 53.204784 -3.229900 41,000 130 501 -64
2019-04-19 11:56:44 GMT 53.210560 -3.240967 41,000 130 501 0
2019-04-19 11:56:41 GMT 53.216610 -3.252599 41,000 130 501 64
2019-04-19 11:56:38 GMT 53.220108 -3.259330 40,975 130 501 64
2019-04-19 11:56:34 GMT 53.226013 -3.270614 40,975 130 501 -64
2019-04-19 11:56:31 GMT 53.229813 -3.277928 40,975 130 501 0
2019-04-19 11:56:28 GMT 53.235416 -3.288709 40,975 130 501 0
2019-04-19 11:56:24 GMT 53.241188 -3.299776 40,975 130 501 -64
2019-04-19 11:56:21 GMT 53.245750 -3.308500 40,975 130 501 -64
2019-04-19 11:56:18 GMT 53.251804 -3.320133 40,975 130 501 -64
2019-04-19 11:56:15 GMT 53.261486 -3.338794 41,000 130 501 -64
2019-04-19 11:56:11 GMT 53.261486 -3.338794 40,975 130 501 -64
2019-04-19 11:56:08 GMT 53.264511 -3.344610 41,000 130 501 -64
2019-04-19 11:56:05 GMT 53.270737 -3.356559 41,000 130 501 -64
2019-04-19 11:56:02 GMT 53.280121 -3.374608 41,000 130 501 -64
2019-04-19 11:55:58 GMT 53.280121 -3.374608 41,000 130 501 -64
2019-04-19 11:55:55 GMT 53.284378 -3.382769 41,000 130 501 -64
2019-04-19 11:55:52 GMT 53.293121 -3.399719 41,000 130 503 -64
2019-04-19 11:55:46 GMT 53.299805 -3.412589 40,975 130 501 -64
2019-04-19 11:55:43 GMT 53.302826 -3.418396 41,000 130 501 -64
2019-04-19 11:55:40 GMT 53.308132 -3.428623 41,000 130 501 0
2019-04-19 11:55:37 GMT 53.312973 -3.437994 40,975 130 501 -64
2019-04-19 11:55:31 GMT 53.321915 -3.455200 41,000 130 501 -64
2019-04-19 11:55:28 GMT 53.326893 -3.464894 41,000 130 503 0
2019-04-19 11:55:25 GMT 53.329918 -3.470710 40,975 130 502 -64
2019-04-19 11:55:22 GMT 53.334641 -3.479762 41,000 130 502 -64
2019-04-19 11:55:19 GMT 53.340408 -3.490906 40,975 130 503 0
2019-04-19 11:55:16 GMT 53.345581 -3.500872 40,975 130 503 -64
2019-04-19 11:55:13 GMT 53.349331 -3.508274 41,000 130 503 -64
2019-04-19 11:55:10 GMT 53.354218 -3.517645 40,975 130 504 0
2019-04-19 11:55:07 GMT 53.362690 -3.534124 41,000 130 504 -64
2019-04-19 11:55:04 GMT 53.365585 -3.539716 40,975 130 504 -64
2019-04-19 11:54:58 GMT 53.371033 -3.550310 41,000 130 504 -64
2019-04-19 11:54:55 GMT 53.376480 -3.560904 41,000 130 504 -64
2019-04-19 11:54:52 GMT 53.381496 -3.570637 41,000 130 504 -64
2019-04-19 11:54:49 GMT 53.385910 -3.579189 40,975 130 504 0
2019-04-19 11:54:46 GMT 53.389252 -3.585624 41,000 130 504 0
2019-04-19 11:54:43 GMT 53.393929 -3.594791 40,975 130 504 0
2019-04-19 11:54:40 GMT 53.399094 -3.604808 40,975 130 504 0
2019-04-19 11:54:37 GMT 53.403049 -3.612482 40,975 130 504 -64
2019-04-19 11:54:34 GMT 53.408546 -3.623146 40,975 130 504 -64
2019-04-19 11:54:31 GMT 53.412003 -3.629961 40,975 130 504 0
2019-04-19 11:54:28 GMT 53.417950 -3.641483 40,975 130 505 -64
2019-04-19 11:54:25 GMT 53.422348 -3.650051 40,975 130 505 0
2019-04-19 11:54:22 GMT 53.426010 -3.657113 40,975 130 505 0
2019-04-19 11:54:19 GMT 53.430702 -3.666364 41,000 130 506 0
2019-04-19 11:54:16 GMT 53.435440 -3.675555 40,975 130 506 0
2019-04-19 11:54:13 GMT 53.439827 -3.684136 41,000 130 506 -64
2019-04-19 11:54:10 GMT 53.444111 -3.692376 41,000 130 505 0
2019-04-19 11:54:07 GMT 53.450489 -3.704897 40,975 130 506 -64
2019-04-19 11:54:04 GMT 53.452789 -3.709298 40,975 130 506 -64
2019-04-19 11:54:01 GMT 53.462494 -3.728289 41,000 130 505 -64
2019-04-19 11:53:58 GMT 53.466751 -3.736607 41,000 130 505 -64
2019-04-19 11:53:55 GMT 53.466751 -3.736607 41,000 130 505 -64
2019-04-19 11:53:52 GMT 53.471924 -3.746730 41,000 130 505 -64
2019-04-19 11:53:49 GMT 53.476326 -3.755305 41,000 130 505 -64
2019-04-19 11:53:46 GMT 53.484970 -3.772234 41,000 130 505 -64
2019-04-19 11:53:40 GMT 53.494949 -3.791853 41,000 130 505 -64
2019-04-19 11:53:37 GMT 53.494949 -3.791853 41,000 130 505 0
2019-04-19 11:53:34 GMT 53.499645 -3.801027 41,000 130 505 -64
2019-04-19 11:53:31 GMT 53.503883 -3.809348 41,000 130 505 -64
2019-04-19 11:53:28 GMT 53.512207 -3.825753 41,000 130 505 -64
2019-04-19 11:53:25 GMT 53.512207 -3.825753 41,000 130 505 0
2019-04-19 11:53:22 GMT 53.517059 -3.835249 41,000 130 505 -64
2019-04-19 11:53:19 GMT 53.521435 -3.843842 41,000 130 505 -64
2019-04-19 11:53:16 GMT 53.531570 -3.863813 41,000 130 505 0
2019-04-19 11:53:13 GMT 53.531570 -3.863813 41,000 130 505 0
2019-04-19 11:53:10 GMT 53.535957 -3.872438 41,000 130 505 0
2019-04-19 11:53:07 GMT 53.541870 -3.884059 41,000 130 505 0
2019-04-19 11:53:04 GMT 53.545361 -3.890937 40,975 130 505 0
2019-04-19 11:53:01 GMT 53.549877 -3.899823 41,000 130 505 0
2019-04-19 11:52:57 GMT 53.555786 -3.911447 41,000 130 505 0
2019-04-19 11:52:54 GMT 53.563660 -3.926985 40,975 130 505 -64
2019-04-19 11:52:48 GMT 53.568081 -3.935610 41,000 130 505 -64
2019-04-19 11:52:45 GMT 53.573200 -3.945788 41,000 130 505 -64
2019-04-19 11:52:42 GMT 53.578972 -3.957098 40,975 130 505 -64
2019-04-19 11:52:39 GMT 53.583210 -3.965418 41,000 130 505 -64
2019-04-19 11:52:36 GMT 53.586411 -3.971715 41,000 130 505 -64
2019-04-19 11:52:33 GMT 53.592285 -3.983352 41,000 130 505 -64
2019-04-19 11:52:30 GMT 53.596848 -3.992319 41,000 130 505 -64
2019-04-19 11:52:27 GMT 53.601364 -4.001285 41,000 130 505 -64
2019-04-19 11:52:24 GMT 53.605927 -4.010252 41,000 130 505 -64
2019-04-19 11:52:21 GMT 53.609558 -4.017442 41,000 130 505 -64
2019-04-19 11:52:18 GMT 53.614677 -4.027539 41,000 130 505 -64
2019-04-19 11:52:15 GMT 53.618454 -4.035043 41,000 130 506 -64
2019-04-19 11:52:12 GMT 53.623474 -4.044908 41,000 130 506 -64
2019-04-19 11:52:06 GMT 53.633286 -4.064392 41,000 130 505 0
2019-04-19 11:52:03 GMT 53.637070 -4.071889 41,000 130 506 0
2019-04-19 11:52:00 GMT 53.640839 -4.079381 40,975 130 506 0
2019-04-19 11:51:57 GMT 53.646751 -4.091034 40,975 130 506 0
2019-04-19 11:51:54 GMT 53.650059 -4.097577 40,975 130 506 0
2019-04-19 11:51:51 GMT 53.660202 -4.117676 41,000 130 506 0
2019-04-19 11:51:44 GMT 53.665188 -4.127547 41,000 130 506 -64
2019-04-19 11:51:41 GMT 53.671097 -4.139256 40,975 130 506 -64
2019-04-19 11:51:38 GMT 53.673985 -4.144996 41,000 130 505 0
2019-04-19 11:51:34 GMT 53.680641 -4.158164 41,000 130 505 -64
2019-04-19 11:51:31 GMT 53.685486 -4.167777 41,000 130 506 -64
2019-04-19 11:51:28 GMT 53.689114 -4.174966 41,000 130 506 -64
2019-04-19 11:51:24 GMT 53.695908 -4.188459 40,975 130 505 -64
2019-04-19 11:51:21 GMT 53.699680 -4.195970 41,000 130 506 64
2019-04-19 11:51:18 GMT 53.704803 -4.206148 41,000 130 505 0
2019-04-19 11:51:15 GMT 53.708714 -4.213984 41,000 130 506 0
2019-04-19 11:51:12 GMT 53.715225 -4.226911 41,000 130 506 64
2019-04-19 11:51:09 GMT 53.718071 -4.232644 40,975 130 506 64
2019-04-19 11:51:06 GMT 53.723843 -4.244035 40,975 130 506 64
2019-04-19 11:51:02 GMT 53.730286 -4.256967 40,975 130 506 0
2019-04-19 11:50:59 GMT 53.733307 -4.263009 40,975 130 506 0
2019-04-19 11:50:56 GMT 53.739204 -4.274813 40,975 130 506 -64
2019-04-19 11:50:53 GMT 53.741627 -4.279579 40,975 130 506 -64
2019-04-19 11:50:50 GMT 53.748138 -4.292515 41,000 130 506 -64
2019-04-19 11:50:47 GMT 53.751160 -4.298558 40,975 130 506 -64
2019-04-19 11:50:44 GMT 53.760773 -4.317862 41,000 130 506 -64
2019-04-19 11:50:41 GMT 53.760773 -4.317862 40,975 130 506 -64
2019-04-19 11:50:38 GMT 53.764854 -4.325947 41,000 130 506 -64
2019-04-19 11:50:35 GMT 53.770111 -4.336539 41,000 130 506 -64
2019-04-19 11:50:32 GMT 53.773842 -4.344043 41,000 130 505 -64
2019-04-19 11:50:29 GMT 53.778076 -4.352444 41,000 130 505 -64
2019-04-19 11:50:26 GMT 53.787338 -4.371105 40,975 130 505 0
2019-04-19 11:50:23 GMT 53.792908 -4.382289 41,000 130 505 -64
2019-04-19 11:50:20 GMT 53.792908 -4.382289 40,975 130 505 0
2019-04-19 11:50:17 GMT 53.796204 -4.388960 41,000 130 505 -64
2019-04-19 11:50:14 GMT 53.802052 -4.400671 41,000 130 505 -64
2019-04-19 11:50:11 GMT 53.806240 -4.409153 41,000 130 505 -64
2019-04-19 11:50:08 GMT 53.809982 -4.416661 41,000 130 505 -64
2019-04-19 11:50:05 GMT 53.813736 -4.424178 41,000 130 505 -64
2019-04-19 11:50:02 GMT 53.819134 -4.435003 41,000 130 505 -64
2019-04-19 11:49:58 GMT 53.825142 -4.447120 41,000 130 505 -64
2019-04-19 11:49:55 GMT 53.829002 -4.454956 40,975 130 505 -64
2019-04-19 11:49:52 GMT 53.834404 -4.465781 41,000 130 505 -64
2019-04-19 11:49:49 GMT 53.839966 -4.476929 41,000 130 505 -64
2019-04-19 11:49:46 GMT 53.842224 -4.481452 41,000 130 505 -64
2019-04-19 11:49:43 GMT 53.851212 -4.499548 41,000 129 504 0
2019-04-19 11:49:37 GMT 53.857166 -4.511665 41,000 129 505 -64
2019-04-19 11:49:34 GMT 53.861801 -4.521031 40,975 129 504 0
2019-04-19 11:49:31 GMT 53.866154 -4.529841 40,975 129 505 0
2019-04-19 11:49:28 GMT 53.870819 -4.539158 40,975 129 505 -64
2019-04-19 11:49:25 GMT 53.875305 -4.548261 41,000 129 505 -64
2019-04-19 11:49:21 GMT 53.879608 -4.557064 41,000 129 505 -64
2019-04-19 11:49:18 GMT 53.884727 -4.567324 41,000 129 505 -64
2019-04-19 11:49:15 GMT 53.888763 -4.575492 41,000 129 505 -64
2019-04-19 11:49:12 GMT 53.895481 -4.589135 41,000 129 504 -64
2019-04-19 11:49:08 GMT 53.899200 -4.596680 41,000 129 504 -64
2019-04-19 11:49:05 GMT 53.905151 -4.608765 41,000 129 504 -64
2019-04-19 11:49:02 GMT 53.908768 -4.616063 41,000 129 504 0
2019-04-19 11:48:59 GMT 53.913078 -4.624840 41,000 129 505 0
2019-04-19 11:48:55 GMT 53.919479 -4.637800 41,000 129 504 -64
2019-04-19 11:48:51 GMT 53.926483 -4.652064 41,000 129 504 0
2019-04-19 11:48:44 GMT 53.941269 -4.682059 40,975 129 504 64
2019-04-19 11:48:41 GMT 53.946030 -4.691790 40,975 129 505 64
2019-04-19 11:48:38 GMT 53.946030 -4.691790 40,975 129 505 64
2019-04-19 11:48:35 GMT 53.955162 -4.710307 40,975 129 505 0
2019-04-19 11:48:32 GMT 53.955162 -4.710307 40,975 129 505 64
2019-04-19 11:48:29 GMT 53.958744 -4.717578 40,975 129 505 0
2019-04-19 11:48:26 GMT 53.962608 -4.725414 40,975 129 505 0
2019-04-19 11:48:23 GMT 53.967270 -4.734872 40,975 129 505 0
2019-04-19 11:48:20 GMT 53.972946 -4.746408 40,975 129 505 -64
2019-04-19 11:48:17 GMT 53.979321 -4.759504 40,975 129 505 -64
2019-04-19 11:48:11 GMT 53.985886 -4.772833 40,975 129 504 -64
2019-04-19 11:48:04 GMT 53.994690 -4.790824 41,000 129 504 -64
2019-04-19 11:48:01 GMT 54.003891 -4.809658 40,975 129 504 -64
2019-04-19 11:47:54 GMT 54.009998 -4.822109 40,975 129 504 0
2019-04-19 11:47:50 GMT 54.016796 -4.836085 40,975 129 504 -64
2019-04-19 11:47:46 GMT 54.022148 -4.846990 40,975 129 504 0
2019-04-19 11:47:43 GMT 54.025410 -4.853695 40,975 129 504 0
2019-04-19 11:47:40 GMT 54.031368 -4.865812 40,975 129 503 0
2019-04-19 11:47:37 GMT 54.036530 -4.876439 41,000 129 503 -64
2019-04-19 11:47:33 GMT 54.040539 -4.884635 41,000 129 503 -64
2019-04-19 11:47:28 GMT 54.049896 -4.903826 41,000 129 503 -64
2019-04-19 11:47:24 GMT 54.055668 -4.915655 41,000 129 503 -64
2019-04-19 11:47:21 GMT 54.058926 -4.922360 41,000 129 503 0
2019-04-19 11:47:18 GMT 54.064838 -4.934477 41,000 129 503 0
2019-04-19 11:47:15 GMT 54.067657 -4.940238 40,975 129 503 0
2019-04-19 11:47:12 GMT 54.071354 -4.947887 41,000 129 503 -64
2019-04-19 11:47:09 GMT 54.080658 -4.967076 40,975 129 503 0
2019-04-19 11:47:03 GMT 54.085373 -4.976807 40,975 129 503 -64
2019-04-19 11:47:00 GMT 54.090256 -4.986824 40,975 129 503 0
2019-04-19 11:46:57 GMT 54.095764 -4.998073 41,000 129 503 0
2019-04-19 11:46:54 GMT 54.099014 -5.004822 41,000 129 503 64
2019-04-19 11:46:51 GMT 54.103291 -5.013643 40,975 129 503 0
2019-04-19 11:46:47 GMT 54.109528 -5.026407 40,975 129 503 -64
2019-04-19 11:46:44 GMT 54.114395 -5.036447 41,000 129 503 -64
2019-04-19 11:46:41 GMT 54.117966 -5.043745 41,000 129 503 -64
2019-04-19 11:46:37 GMT 54.124889 -5.058073 41,000 129 502 -64
2019-04-19 11:46:34 GMT 54.129501 -5.067522 41,000 129 502 -64
2019-04-19 11:46:31 GMT 54.132294 -5.073341 41,000 129 502 -64
2019-04-19 11:46:27 GMT 54.143791 -5.097091 41,000 129 502 0
2019-04-19 11:46:23 GMT 54.143791 -5.097091 41,000 129 502 64
2019-04-19 11:46:20 GMT 54.149097 -5.108077 40,975 129 502 0
2019-04-19 11:46:17 GMT 54.153519 -5.117205 40,975 129 502 0
2019-04-19 11:46:14 GMT 54.159576 -5.129752 40,975 129 502 0
2019-04-19 11:46:11 GMT 54.162643 -5.136108 41,000 129 502 -64
2019-04-19 11:46:08 GMT 54.167393 -5.145883 40,975 129 502 0
2019-04-19 11:46:05 GMT 54.172531 -5.156590 40,975 129 502 -64
2019-04-19 11:46:02 GMT 54.176102 -5.163888 40,975 129 502 -64
2019-04-19 11:45:59 GMT 54.179775 -5.171491 40,975 129 502 0
2019-04-19 11:45:56 GMT 54.185364 -5.183123 41,000 129 502 0
2019-04-19 11:45:53 GMT 54.189178 -5.191040 40,975 129 500 0
2019-04-19 11:45:49 GMT 54.195648 -5.204450 41,000 129 500 0
2019-04-19 11:45:46 GMT 54.203430 -5.220546 41,000 129 500 0
2019-04-19 11:45:40 GMT 54.213245 -5.240963 40,975 129 500 0
2019-04-19 11:45:37 GMT 54.213245 -5.240963 40,975 129 500 -64
2019-04-19 11:45:34 GMT 54.216614 -5.248012 40,975 129 500 -64
2019-04-19 11:45:31 GMT 54.221008 -5.257115 40,975 129 500 -64
2019-04-19 11:45:28 GMT 54.225536 -5.266571 41,000 129 500 -64
2019-04-19 11:45:24 GMT 54.235931 -5.288191 41,000 129 499 -64
2019-04-19 11:45:18 GMT 54.241196 -5.299098 41,000 129 499 -64
2019-04-19 11:45:15 GMT 54.245461 -5.307931 41,000 129 499 -64
2019-04-19 11:45:12 GMT 54.249229 -5.315848 40,975 129 498 0
2019-04-19 11:45:08 GMT 54.253784 -5.325230 41,000 129 498 -64
2019-04-19 11:45:04 GMT 54.260193 -5.338649 40,975 129 498 -64
2019-04-19 11:45:01 GMT 54.266411 -5.351715 41,000 129 498 0
2019-04-19 11:44:58 GMT 54.269341 -5.357774 41,000 129 498 0
2019-04-19 11:44:54 GMT 54.279648 -5.379342 40,975 129 498 -64
2019-04-19 11:44:51 GMT 54.284752 -5.389959 40,975 129 498 -64
2019-04-19 11:44:48 GMT 54.284752 -5.389959 41,000 129 497 -64
2019-04-19 11:44:44 GMT 54.290569 -5.402111 41,000 129 496 0
2019-04-19 11:44:41 GMT 54.294899 -5.411266 41,000 129 496 -64
2019-04-19 11:44:38 GMT 54.298389 -5.418590 40,975 129 496 0
2019-04-19 11:44:35 GMT 54.302856 -5.427973 40,975 129 496 -64
2019-04-19 11:44:32 GMT 54.307800 -5.438313 40,975 129 496 -64
2019-04-19 11:44:29 GMT 54.311554 -5.446230 41,000 129 496 -64
2019-04-19 11:44:26 GMT 54.316223 -5.455924 40,975 129 496 -64
2019-04-19 11:44:23 GMT 54.320129 -5.464117 40,975 129 496 -64
2019-04-19 11:44:20 GMT 54.324738 -5.473855 41,000 129 496 -64
2019-04-19 11:44:17 GMT 54.329224 -5.483309 41,000 129 496 -64
2019-04-19 11:44:14 GMT 54.332279 -5.489668 41,000 129 496 -64
2019-04-19 11:44:11 GMT 54.337170 -5.499989 41,000 129 496 -64
2019-04-19 11:44:08 GMT 54.342941 -5.512140 41,000 129 496 0
2019-04-19 11:44:04 GMT 54.347443 -5.521599 41,000 129 496 0
2019-04-19 11:44:01 GMT 54.356964 -5.541633 40,975 129 496 -64
2019-04-19 11:43:58 GMT 54.356964 -5.541633 40,975 129 496 -64
2019-04-19 11:43:55 GMT 54.360443 -5.548904 41,000 129 496 -64
2019-04-19 11:43:52 GMT 54.363922 -5.556174 40,975 129 496 -64
2019-04-19 11:43:49 GMT 54.370686 -5.570485 41,000 129 496 -64
2019-04-19 11:43:46 GMT 54.374588 -5.578712 41,000 129 495 -64
2019-04-19 11:43:42 GMT 54.380184 -5.590543 41,000 129 495 -64
2019-04-19 11:43:39 GMT 54.383675 -5.597867 41,000 129 495 -64
2019-04-19 11:43:36 GMT 54.388412 -5.607955 41,000 129 495 -64
2019-04-19 11:43:33 GMT 54.392990 -5.617649 41,000 129 495 -64
2019-04-19 11:43:29 GMT 54.397339 -5.626777 41,000 129 495 -64
2019-04-19 11:43:26 GMT 54.407410 -5.648104 41,000 129 495 0
2019-04-19 11:43:23 GMT 54.410721 -5.655129 41,000 128 496 0
2019-04-19 11:43:17 GMT 54.415146 -5.664583 41,000 128 497 0
2019-04-19 11:43:14 GMT 54.419220 -5.673146 41,000 123 496 -64
2019-04-19 11:43:11 GMT 54.425385 -5.686257 41,000 129 496 0
2019-04-19 11:43:08 GMT 54.428272 -5.692333 41,000 129 496 0
2019-04-19 11:43:05 GMT 54.432320 -5.700906 40,975 129 496 0
2019-04-19 11:43:02 GMT 54.437393 -5.711598 40,975 128 497 0
2019-04-19 11:42:58 GMT 54.443260 -5.724127 41,000 128 497 0
2019-04-19 11:42:54 GMT 54.448753 -5.735779 40,975 128 497 0
2019-04-19 11:42:51 GMT 54.452957 -5.744638 40,975 128 497 0
2019-04-19 11:42:48 GMT 54.457134 -5.753507 40,975 129 498 0
2019-04-19 11:42:44 GMT 54.464539 -5.769115 40,975 129 498 0
2019-04-19 11:42:41 GMT 54.473057 -5.787215 40,975 127 498 -64
2019-04-19 11:42:38 GMT 54.473057 -5.787215 40,975 125 496 0
2019-04-19 11:42:35 GMT 54.476669 -5.794884 40,975 128 498 -64
2019-04-19 11:42:32 GMT 54.480270 -5.802529 40,975 128 498 -64
2019-04-19 11:42:29 GMT 54.484600 -5.811851 40,975 128 498 -64
2019-04-19 11:42:25 GMT 54.491398 -5.826749 40,975 127 498 -64
2019-04-19 11:42:22 GMT 54.495632 -5.836071 41,000 127 498 -64
2019-04-19 11:42:19 GMT 54.499821 -5.845476 41,000 127 497 -64
2019-04-19 11:42:16 GMT 54.504410 -5.855794 41,000 126 497 -64
2019-04-19 11:42:13 GMT 54.507317 -5.862371 41,000 126 496 -64
2019-04-19 11:42:10 GMT 54.511135 -5.871277 41,000 126 497 -64
2019-04-19 11:42:06 GMT 54.516300 -5.883345 41,000 125 496 0
2019-04-19 11:42:03 GMT 54.521576 -5.895700 41,000 125 497 0
2019-04-19 11:42:00 GMT 54.524120 -5.901822 41,000 125 497 0
2019-04-19 11:41:57 GMT 54.534073 -5.925832 41,000 125 496 64
2019-04-19 11:41:53 GMT 54.534073 -5.925832 40,975 124 497 64
2019-04-19 11:41:50 GMT 54.538136 -5.935863 40,975 124 497 64
2019-04-19 11:41:47 GMT 54.541813 -5.944935 40,975 124 497 0
2019-04-19 11:41:44 GMT 54.545677 -5.954673 40,975 124 496 -64
2019-04-19 11:41:41 GMT 54.549541 -5.964494 40,975 123 497 -64
2019-04-19 11:41:38 GMT 54.552521 -5.972039 40,975 123 497 -64
2019-04-19 11:41:35 GMT 54.558247 -5.986800 41,000 123 497 -64
2019-04-19 11:41:32 GMT 54.561317 -5.994623 41,000 123 497 -64
2019-04-19 11:41:29 GMT 54.564514 -6.002817 41,000 123 496 -64
2019-04-19 11:41:24 GMT 54.571884 -6.021800 40,975 123 496 -64
2019-04-19 11:41:21 GMT 54.575050 -6.029996 41,000 123 496 -64
2019-04-19 11:41:18 GMT 54.580170 -6.043146 40,975 123 496 -64
2019-04-19 11:41:15 GMT 54.581818 -6.047408 41,000 123 496 0
2019-04-19 11:41:12 GMT 54.590195 -6.068977 41,000 123 496 0
2019-04-19 11:41:09 GMT 54.593624 -6.077853 41,000 123 496 0
2019-04-19 11:41:06 GMT 54.593624 -6.077853 41,000 123 496 0
2019-04-19 11:41:03 GMT 54.597954 -6.089006 40,975 123 496 0
2019-04-19 11:41:00 GMT 54.601639 -6.098543 40,975 123 496 -64
2019-04-19 11:40:57 GMT 54.604843 -6.106734 40,975 123 496 0
2019-04-19 11:40:53 GMT 54.611298 -6.123424 41,000 123 496 0
2019-04-19 11:40:50 GMT 54.614594 -6.131987 41,000 123 496 -64
2019-04-19 11:40:47 GMT 54.618530 -6.142106 40,975 123 496 -64
2019-04-19 11:40:44 GMT 54.622238 -6.151617 40,975 123 496 -64
2019-04-19 11:40:41 GMT 54.627319 -6.164784 40,975 123 496 0
2019-04-19 11:40:38 GMT 54.629704 -6.170987 40,975 123 496 -64
2019-04-19 11:40:35 GMT 54.635056 -6.184803 41,000 123 496 -64
2019-04-19 11:40:31 GMT 54.638363 -6.193376 41,000 123 496 -64
2019-04-19 11:40:28 GMT 54.646591 -6.214707 41,000 123 495 -64
2019-04-19 11:40:25 GMT 54.646591 -6.214707 41,000 123 496 -64
2019-04-19 11:40:22 GMT 54.651169 -6.226501 41,000 123 495 -64
2019-04-19 11:40:19 GMT 54.654842 -6.236073 41,000 123 495 -64
2019-04-19 11:40:16 GMT 54.657715 -6.243627 41,000 123 496 0
2019-04-19 11:40:13 GMT 54.660782 -6.251544 40,975 123 496 -64
2019-04-19 11:40:09 GMT 54.666199 -6.265703 40,975 123 495 -64
2019-04-19 11:40:06 GMT 54.671402 -6.279171 41,000 123 496 -64
2019-04-19 11:40:02 GMT 54.675705 -6.290319 41,000 123 496 -64
2019-04-19 11:39:58 GMT 54.680237 -6.302194 41,000 123 497 0
2019-04-19 11:39:55 GMT 54.684959 -6.314392 41,000 123 496 -64
2019-04-19 11:39:48 GMT 54.693924 -6.337738 41,000 123 496 0
2019-04-19 11:39:45 GMT 54.697109 -6.346019 41,000 123 496 0
2019-04-19 11:39:42 GMT 54.700516 -6.354945 41,000 123 497 0
2019-04-19 11:39:38 GMT 54.706188 -6.369740 41,000 123 497 64
2019-04-19 11:39:35 GMT 54.709263 -6.377730 40,975 123 498 0
2019-04-19 11:39:32 GMT 54.713032 -6.387634 40,975 123 497 64
2019-04-19 11:39:28 GMT 54.719238 -6.403818 40,975 123 498 0
2019-04-19 11:39:25 GMT 54.722389 -6.412104 40,975 123 498 0
2019-04-19 11:39:22 GMT 54.725460 -6.420094 40,975 123 498 64
2019-04-19 11:39:18 GMT 54.731281 -6.435325 40,975 123 498 0
2019-04-19 11:39:15 GMT 54.736496 -6.448894 40,975 123 498 0
2019-04-19 11:39:10 GMT 54.741428 -6.461875 40,975 123 499 0
2019-04-19 11:39:07 GMT 54.744598 -6.470139 40,975 123 499 -64
2019-04-19 11:39:04 GMT 54.748901 -6.481449 40,975 123 499 -64
2019-04-19 11:38:59 GMT 54.754372 -6.495750 41,000 123 499 0
2019-04-19 11:38:55 GMT 54.760468 -6.511730 41,000 123 499 0
2019-04-19 11:38:52 GMT 54.765030 -6.523715 40,975 123 499 0
2019-04-19 11:38:48 GMT 54.768219 -6.532018 40,975 123 499 0
2019-04-19 11:38:45 GMT 54.777100 -6.555283 40,975 123 499 0
2019-04-19 11:38:39 GMT 54.780766 -6.564914 40,975 123 500 -64
2019-04-19 11:38:36 GMT 54.784580 -6.574984 41,000 123 500 -64
2019-04-19 11:38:33 GMT 54.788727 -6.585981 41,000 123 500 -64
2019-04-19 11:38:30 GMT 54.791794 -6.593978 41,000 123 499 -64
2019-04-19 11:38:27 GMT 54.795090 -6.602622 41,000 123 499 -64
2019-04-19 11:38:24 GMT 54.799480 -6.614269 41,000 123 499 -64
2019-04-19 11:38:21 GMT 54.803146 -6.623948 41,000 123 499 -64
2019-04-19 11:38:18 GMT 54.806946 -6.633965 41,000 123 499 -64
2019-04-19 11:38:15 GMT 54.810604 -6.643649 41,000 123 499 -64
2019-04-19 11:38:12 GMT 54.814545 -6.653999 41,000 123 502 0
2019-04-19 11:38:08 GMT 54.819450 -6.667037 41,000 123 499 -64
2019-04-19 11:38:04 GMT 54.824757 -6.681019 41,000 123 500 64
2019-04-19 11:38:01 GMT 54.829147 -6.692774 41,000 123 500 64
2019-04-19 11:37:58 GMT 54.831833 -6.699829 41,000 123 500 64
2019-04-19 11:37:55 GMT 54.836349 -6.711814 41,000 123 502 64
2019-04-19 11:37:49 GMT 54.847984 -6.742692 40,975 123 502 64
2019-04-19 11:37:46 GMT 54.847984 -6.742692 41,000 123 502 64
2019-04-19 11:37:43 GMT 54.850937 -6.750452 40,975 123 502 128
2019-04-19 11:37:40 GMT 54.855854 -6.763583 40,975 123 503 -64
2019-04-19 11:37:37 GMT 54.860092 -6.774687 40,975 123 503 0
2019-04-19 11:37:34 GMT 54.863022 -6.782393 40,975 123 503 -64
2019-04-19 11:37:28 GMT 54.871681 -6.805281 40,975 123 503 -64
2019-04-19 11:37:23 GMT 54.876938 -6.819036 41,000 123 503 -64
2019-04-19 11:37:20 GMT 54.881241 -6.830507 41,000 123 503 -64
2019-04-19 11:37:17 GMT 54.887878 -6.848037 41,000 123 503 -64
2019-04-19 11:37:11 GMT 54.892456 -6.860154 41,000 123 503 -64
2019-04-19 11:37:08 GMT 54.897537 -6.873645 41,000 123 502 -64
2019-04-19 11:37:04 GMT 54.901062 -6.883096 41,000 123 502 0
2019-04-19 11:37:01 GMT 54.905640 -6.895213 40,975 123 502 0
2019-04-19 11:36:57 GMT 54.910042 -6.906988 40,975 122 502 0
2019-04-19 11:36:54 GMT 54.913971 -6.917509 41,000 122 502 0
2019-04-19 11:36:51 GMT 54.917221 -6.926234 41,000 122 502 0
2019-04-19 11:36:48 GMT 54.922379 -6.940113 40,975 122 502 0
2019-04-19 11:36:45 GMT 54.924271 -6.945137 40,975 122 502 0
2019-04-19 11:36:42 GMT 54.929077 -6.957981 40,975 122 502 0
2019-04-19 11:36:39 GMT 54.932098 -6.966140 40,975 122 502 0
2019-04-19 11:36:35 GMT 54.937042 -6.979315 41,000 122 503 0
2019-04-19 11:36:32 GMT 54.940811 -6.989385 41,000 122 502 0
2019-04-19 11:36:29 GMT 54.944584 -6.999539 40,975 122 503 0
2019-04-19 11:36:25 GMT 54.949997 -7.014043 41,000 122 503 -64
2019-04-19 11:36:22 GMT 54.957825 -7.035047 41,000 122 503 -64
2019-04-19 11:36:19 GMT 54.957825 -7.035047 40,975 122 503 0
2019-04-19 11:36:15 GMT 54.963249 -7.049561 40,975 122 503 0
2019-04-19 11:36:12 GMT 54.966660 -7.058635 40,975 122 502 -64
2019-04-19 11:36:09 GMT 54.970558 -7.069120 40,975 122 502 -64
2019-04-19 11:36:04 GMT 54.976891 -7.086098 41,000 122 502 -64
2019-04-19 11:36:01 GMT 54.980804 -7.096522 41,000 122 502 -64
2019-04-19 11:35:58 GMT 54.984055 -7.105327 41,000 122 501 -64
2019-04-19 11:35:55 GMT 54.989090 -7.118817 41,000 122 501 0
2019-04-19 11:35:52 GMT 54.991741 -7.125965 41,000 122 501 0
2019-04-19 11:35:49 GMT 54.995636 -7.136428 41,000 122 502 64
2019-04-19 11:35:46 GMT 55.000259 -7.148937 40,975 122 502 64
2019-04-19 11:35:43 GMT 55.006031 -7.164501 40,975 122 502 64
2019-04-19 11:35:40 GMT 55.010315 -7.175987 40,975 122 502 64
2019-04-19 11:35:37 GMT 55.010315 -7.175987 40,975 122 502 64
2019-04-19 11:35:33 GMT 55.015575 -7.190219 40,975 122 501 0
2019-04-19 11:35:30 GMT 55.022507 -7.208808 40,975 122 501 -64
2019-04-19 11:35:27 GMT 55.022507 -7.208808 40,975 122 501 -64
2019-04-19 11:35:24 GMT 55.027771 -7.223026 41,000 122 501 -64
2019-04-19 11:35:21 GMT 55.030792 -7.231104 41,000 123 500 -64
2019-04-19 11:35:18 GMT 55.034473 -7.240906 41,000 122 501 0
2019-04-19 11:35:15 GMT 55.039124 -7.253400 41,000 122 501 0
2019-04-19 11:35:11 GMT 55.043507 -7.265292 40,975 122 501 0
2019-04-19 11:35:08 GMT 55.046719 -7.274114 40,975 122 501 0
2019-04-19 11:35:05 GMT 55.051575 -7.287328 40,975 122 501 0
2019-04-19 11:35:00 GMT 55.056679 -7.301247 40,975 122 501 -64
2019-04-19 11:34:56 GMT 55.061939 -7.315480 41,000 122 501 -64
2019-04-19 11:34:49 GMT 55.071438 -7.341198 41,000 122 500 0
2019-04-19 11:34:46 GMT 55.075439 -7.352017 40,975 122 500 0
2019-04-19 11:34:39 GMT 55.083572 -7.374088 41,000 122 500 0
2019-04-19 11:34:35 GMT 55.087917 -7.385975 41,000 122 500 64
2019-04-19 11:34:31 GMT 55.093781 -7.401877 41,000 122 500 -64
2019-04-19 11:34:27 GMT 55.098625 -7.415106 40,975 122 500 -64
2019-04-19 11:34:24 GMT 55.109329 -7.444236 41,000 122 500 -64
2019-04-19 11:34:18 GMT 55.109329 -7.444236 41,000 122 500 0
2019-04-19 11:34:14 GMT 55.115204 -7.460121 41,000 122 500 64
2019-04-19 11:34:10 GMT 55.122391 -7.479831 41,000 122 500 0
2019-04-19 11:34:04 GMT 55.126373 -7.490737 40,975 122 500 -64
2019-04-19 11:33:59 GMT 55.133678 -7.510820 41,000 122 500 0
2019-04-19 11:33:56 GMT 55.137169 -7.520308 40,975 122 500 0
2019-04-19 11:33:49 GMT 55.145409 -7.542697 40,975 122 500 0
2019-04-19 11:33:46 GMT 55.148758 -7.551889 40,975 122 500 0
2019-04-19 11:33:43 GMT 55.153091 -7.563754 40,975 122 500 -64
2019-04-19 11:33:38 GMT 55.159283 -7.580816 41,000 122 500 0
2019-04-19 11:33:35 GMT 55.162495 -7.589638 41,000 122 500 0
2019-04-19 11:33:32 GMT 55.166565 -7.600843 40,975 122 500 0
2019-04-19 11:33:28 GMT 55.172409 -7.616855 40,975 122 500 0
2019-04-19 11:33:25 GMT 55.175537 -7.625320 40,975 122 499 -64
2019-04-19 11:33:22 GMT 55.185196 -7.651816 41,000 122 498 0
2019-04-19 11:33:17 GMT 55.185196 -7.651816 41,000 122 499 -64
2019-04-19 11:33:14 GMT 55.188904 -7.661994 41,000 122 499 -64
2019-04-19 11:33:11 GMT 55.196430 -7.682773 41,000 122 499 -64
2019-04-19 11:33:08 GMT 55.196430 -7.682773 40,975 122 499 -64
2019-04-19 11:33:05 GMT 55.199875 -7.692261 41,000 122 499 -64
2019-04-19 11:33:02 GMT 55.202854 -7.700417 40,975 122 499 0
2019-04-19 11:32:59 GMT 55.206436 -7.710302 41,000 122 499 0
2019-04-19 11:32:56 GMT 55.211380 -7.723873 41,000 122 499 0
2019-04-19 11:32:53 GMT 55.214493 -7.732377 40,975 122 499 0
2019-04-19 11:32:50 GMT 55.218292 -7.742857 40,975 122 498 0
2019-04-19 11:32:46 GMT 55.223465 -7.757155 40,975 122 498 -64
2019-04-19 11:32:40 GMT 55.230377 -7.776139 41,000 122 498 -64
2019-04-19 11:32:37 GMT 55.235550 -7.790438 41,000 122 497 -64
2019-04-19 11:32:34 GMT 55.238480 -7.798597 41,000 122 497 -64
2019-04-19 11:32:31 GMT 55.241074 -7.805703 40,975 122 497 -64
2019-04-19 11:32:27 GMT 55.246582 -7.820973 40,975 122 496 -64
2019-04-19 11:32:24 GMT 55.250244 -7.831152 41,000 122 496 -64
2019-04-19 11:32:21 GMT 55.254410 -7.842703 40,975 122 496 -64
2019-04-19 11:32:17 GMT 55.259647 -7.857222 41,000 122 496 -64
2019-04-19 11:32:13 GMT 55.263603 -7.868125 41,000 122 496 -64
2019-04-19 11:32:10 GMT 55.267136 -7.877924 41,000 122 496 -64
2019-04-19 11:32:07 GMT 55.270912 -7.888433 41,000 122 496 -64
2019-04-19 11:32:04 GMT 55.278500 -7.909490 41,000 122 496 -64
2019-04-19 11:32:01 GMT 55.278500 -7.909490 41,000 122 496 -64
2019-04-19 11:31:58 GMT 55.281666 -7.918313 41,000 122 496 -64
2019-04-19 11:31:54 GMT 55.286835 -7.932545 41,000 122 496 -64
2019-04-19 11:31:51 GMT 55.290344 -7.942388 41,000 122 496 0
2019-04-19 11:31:48 GMT 55.299541 -7.967834 41,000 122 497 64
2019-04-19 11:31:44 GMT 55.299541 -7.967834 40,975 122 497 64
2019-04-19 11:31:41 GMT 55.303299 -7.978417 40,975 122 497 64
2019-04-19 11:31:36 GMT 55.309273 -7.995134 40,975 122 497 64
2019-04-19 11:31:33 GMT 55.312592 -8.004267 40,975 122 498 0
2019-04-19 11:31:30 GMT 55.318115 -8.019603 40,975 122 498 0
2019-04-19 11:31:25 GMT 55.325592 -8.040457 41,000 122 498 64
2019-04-19 11:31:19 GMT 55.329895 -8.052396 40,975 122 498 0
2019-04-19 11:31:16 GMT 55.333061 -8.061218 40,975 122 498 64
2019-04-19 11:31:13 GMT 55.336853 -8.071881 40,975 122 498 64
2019-04-19 11:31:10 GMT 55.340649 -8.082442 40,975 122 498 0
2019-04-19 11:31:07 GMT 55.347839 -8.102579 40,975 122 498 0
2019-04-19 11:31:04 GMT 55.347839 -8.102579 40,975 122 498 0
2019-04-19 11:31:01 GMT 55.351868 -8.113819 40,975 122 497 0
2019-04-19 11:30:58 GMT 55.355034 -8.122725 40,975 122 497 0
2019-04-19 11:30:55 GMT 55.359055 -8.134003 41,000 122 497 0
2019-04-19 11:30:52 GMT 55.362110 -8.142534 41,000 122 497 -64
2019-04-19 11:30:49 GMT 55.366020 -8.153520 40,975 122 497 -64
2019-04-19 11:30:45 GMT 55.371372 -8.168501 41,000 121 497 -64
2019-04-19 11:30:42 GMT 55.375004 -8.178739 41,000 121 497 -64
2019-04-19 11:30:38 GMT 55.380077 -8.193137 41,000 121 497 -64
2019-04-19 11:30:34 GMT 55.384369 -8.205091 41,000 121 497 0
2019-04-19 11:30:31 GMT 55.387482 -8.213977 41,000 121 497 -64
2019-04-19 11:30:27 GMT 55.393570 -8.231022 40,975 121 496 0
2019-04-19 11:30:24 GMT 55.396603 -8.239580 40,975 121 497 0
2019-04-19 11:30:21 GMT 55.400116 -8.249521 40,975 121 497 0
2019-04-19 11:30:17 GMT 55.405426 -8.264546 40,975 121 497 0
2019-04-19 11:30:13 GMT 55.410049 -8.277552 40,975 121 497 0
2019-04-19 11:30:10 GMT 55.418015 -8.300090 40,975 121 497 -64
2019-04-19 11:30:07 GMT 55.418015 -8.300090 40,975 121 497 0
2019-04-19 11:30:03 GMT 55.421555 -8.309992 41,000 121 497 -64
2019-04-19 11:30:00 GMT 55.425652 -8.321644 41,000 121 497 0
2019-04-19 11:29:57 GMT 55.430878 -8.336280 41,000 121 497 0
2019-04-19 11:29:53 GMT 55.433941 -8.344865 41,000 121 497 0
2019-04-19 11:29:50 GMT 55.438156 -8.356799 41,000 121 497 -64
2019-04-19 11:29:45 GMT 55.447357 -8.382901 40,975 121 496 -64
2019-04-19 11:29:42 GMT 55.447357 -8.382901 40,975 121 496 -64
2019-04-19 11:29:39 GMT 55.450745 -8.392473 41,000 121 496 0
2019-04-19 11:29:35 GMT 55.459076 -8.416128 41,000 121 496 0
2019-04-19 11:29:29 GMT 55.463223 -8.427801 41,000 121 496 -64
2019-04-19 11:29:25 GMT 55.468529 -8.442822 40,975 121 497 0
2019-04-19 11:29:22 GMT 55.471802 -8.452148 40,975 121 497 64
2019-04-19 11:29:19 GMT 55.475647 -8.463052 41,000 121 497 0
2019-04-19 11:29:15 GMT 55.480583 -8.477154 41,000 121 497 0
2019-04-19 11:29:12 GMT 55.484215 -8.487453 41,000 121 497 0
2019-04-19 11:29:09 GMT 55.488312 -8.499126 40,975 121 497 0
2019-04-19 11:29:05 GMT 55.492176 -8.510113 40,975 121 497 64
2019-04-19 11:29:01 GMT 55.498077 -8.526972 40,975 121 497 64
2019-04-19 11:28:58 GMT 55.501068 -8.535519 40,975 121 497 64
2019-04-19 11:28:54 GMT 55.508469 -8.556519 41,000 121 497 -64
2019-04-19 11:28:51 GMT 55.508469 -8.556519 40,975 121 497 -64
2019-04-19 11:28:48 GMT 55.514103 -8.572683 40,975 121 497 -64
2019-04-19 11:28:45 GMT 55.516754 -8.580236 41,000 121 497 -64
2019-04-19 11:28:42 GMT 55.521084 -8.592596 41,000 121 497 -64
2019-04-19 11:28:38 GMT 55.529278 -8.615942 41,000 121 496 -64
2019-04-19 11:28:35 GMT 55.529278 -8.615942 41,000 121 496 0
2019-04-19 11:28:31 GMT 55.533607 -8.628302 41,000 121 496 0
2019-04-19 11:28:28 GMT 55.536850 -8.637584 41,000 121 496 0
2019-04-19 11:28:24 GMT 55.541382 -8.650651 41,000 121 496 0
2019-04-19 11:28:21 GMT 55.545685 -8.663053 41,000 121 496 0
2019-04-19 11:28:18 GMT 55.548569 -8.671292 40,975 121 495 -64
2019-04-19 11:28:15 GMT 55.552185 -8.681613 40,975 121 495 0
2019-04-19 11:28:12 GMT 55.556030 -8.692599 40,975 121 495 -64
2019-04-19 11:28:09 GMT 55.558914 -8.700839 40,975 121 495 -64
2019-04-19 11:28:06 GMT 55.563675 -8.714572 40,975 121 495 0
2019-04-19 11:28:00 GMT 55.570755 -8.734818 41,000 121 496 -64
2019-04-19 11:27:57 GMT 55.574249 -8.744784 41,000 121 496 0
2019-04-19 11:27:54 GMT 55.577087 -8.753107 41,000 121 496 0
2019-04-19 11:27:51 GMT 55.581509 -8.765802 41,000 121 496 0
2019-04-19 11:27:48 GMT 55.585007 -8.775746 41,000 121 496 64
2019-04-19 11:27:45 GMT 55.588623 -8.786149 40,975 121 496 0
2019-04-19 11:27:38 GMT 55.597340 -8.811293 40,975 121 496 -64
2019-04-19 11:27:34 GMT 55.601074 -8.821938 41,000 121 496 -64
2019-04-19 11:27:30 GMT 55.606693 -8.838158 41,000 121 495 -64
2019-04-19 11:27:27 GMT 55.609680 -8.846741 40,975 121 496 0
2019-04-19 11:27:24 GMT 55.613400 -8.857470 41,000 121 495 -64
2019-04-19 11:27:20 GMT 55.622242 -8.882961 41,000 121 496 0
2019-04-19 11:27:17 GMT 55.622242 -8.882961 41,000 121 496 0
2019-04-19 11:27:14 GMT 55.625828 -8.893347 41,000 121 496 0
2019-04-19 11:27:10 GMT 55.630463 -8.906833 40,975 121 496 0
2019-04-19 11:27:07 GMT 55.634766 -8.919234 41,000 121 496 0
2019-04-19 11:26:59 GMT 55.643600 -8.944785 40,975 121 496 64
2019-04-19 11:26:56 GMT 55.646824 -8.954115 40,975 121 496 64
2019-04-19 11:26:53 GMT 55.650406 -8.964500 40,975 121 496 0
2019-04-19 11:26:50 GMT 55.654457 -8.976259 41,000 121 496 0
2019-04-19 11:26:46 GMT 55.659393 -8.990479 40,975 121 496 0
2019-04-19 11:26:43 GMT 55.662838 -9.000463 40,975 121 496 -64
2019-04-19 11:26:40 GMT 55.665802 -9.009122 40,975 121 496 -64
2019-04-19 11:26:35 GMT 55.671913 -9.026814 40,975 121 496 -64
2019-04-19 11:26:32 GMT 55.675499 -9.037199 41,000 121 496 -64
2019-04-19 11:26:27 GMT 55.681458 -9.054451 41,000 121 496 0
2019-04-19 11:26:24 GMT 55.684994 -9.064837 41,000 121 496 0
2019-04-19 11:26:18 GMT 55.694641 -9.092851 41,000 121 495 0
2019-04-19 11:26:14 GMT 55.697021 -9.099759 41,000 121 494 0
2019-04-19 11:26:11 GMT 55.700592 -9.110080 40,975 121 494 -64
2019-04-19 11:26:07 GMT 55.705200 -9.123545 40,975 121 494 -64
2019-04-19 11:26:04 GMT 55.708736 -9.133930 40,975 121 494 -64
2019-04-19 11:25:58 GMT 55.716431 -9.156439 41,000 121 495 0
2019-04-19 11:25:54 GMT 55.720459 -9.168174 41,000 121 495 0
2019-04-19 11:25:50 GMT 55.725079 -9.181738 40,975 121 495 0
2019-04-19 11:25:47 GMT 55.728745 -9.192394 41,000 121 495 -64
2019-04-19 11:25:43 GMT 55.733002 -9.204878 40,975 121 495 64
2019-04-19 11:25:40 GMT 55.736900 -9.216328 40,975 121 495 64
2019-04-19 11:25:37 GMT 55.740784 -9.227767 40,975 121 495 64
2019-04-19 11:25:33 GMT 55.746120 -9.243364 41,000 121 495 0
2019-04-19 11:25:29 GMT 55.753197 -9.264135 40,975 121 495 64
2019-04-19 11:25:26 GMT 55.753197 -9.264135 40,975 121 495 64
2019-04-19 11:25:23 GMT 55.757767 -9.277621 40,975 121 495 0
2019-04-19 11:25:19 GMT 55.761337 -9.288025 40,975 121 495 -64
2019-04-19 11:25:16 GMT 55.766052 -9.301924 41,000 121 495 64
2019-04-19 11:25:13 GMT 55.770081 -9.313743 41,000 121 495 -64
2019-04-19 11:25:10 GMT 55.774189 -9.325848 41,000 121 495 -64
2019-04-19 11:25:07 GMT 55.776901 -9.333884 41,000 121 495 0
2019-04-19 11:25:02 GMT 55.782196 -9.349451 41,025 121 495 0
2019-04-19 11:24:59 GMT 55.785873 -9.360268 41,000 121 495 64
2019-04-19 11:24:56 GMT 55.789551 -9.370995 41,000 121 495 64
2019-04-19 11:24:52 GMT 55.795464 -9.388418 40,975 121 496 0
2019-04-19 11:24:46 GMT 55.801483 -9.406128 40,975 121 496 0
2019-04-19 11:24:41 GMT 55.807709 -9.424639 40,975 121 496 -64
2019-04-19 11:24:37 GMT 55.811989 -9.437170 40,975 121 497 -64
2019-04-19 11:24:32 GMT 55.824600 -9.474460 41,000 121 497 0
2019-04-19 11:24:27 GMT 55.824600 -9.474460 41,000 120 497 -64
2019-04-19 11:24:22 GMT 55.829449 -9.488754 41,000 120 497 -64
2019-04-19 11:24:19 GMT 55.833683 -9.501371 41,000 120 497 0
2019-04-19 11:24:16 GMT 55.836758 -9.510469 40,975 120 497 0
2019-04-19 11:24:12 GMT 55.841225 -9.523773 40,975 120 497 0
2019-04-19 11:24:05 GMT 55.849232 -9.547548 40,975 120 498 -64
2019-04-19 11:24:01 GMT 55.853703 -9.560852 40,975 120 498 0
2019-04-19 11:23:55 GMT 55.861710 -9.584799 41,000 120 499 -64
2019-04-19 11:23:51 GMT 55.871159 -9.612865 41,000 120 499 0
2019-04-19 11:23:47 GMT 55.871159 -9.612865 41,000 120 499 -64
2019-04-19 11:23:44 GMT 55.873398 -9.619612 41,000 120 499 0
2019-04-19 11:23:41 GMT 55.877487 -9.631920 41,000 120 499 0
2019-04-19 11:23:34 GMT 55.885262 -9.655180 41,000 120 499 0
2019-04-19 11:23:31 GMT 55.889832 -9.668884 40,975 120 499 0
2019-04-19 11:23:24 GMT 55.898529 -9.695018 40,975 120 500 -64
2019-04-19 11:23:20 GMT 55.902054 -9.705672 41,000 120 500 0
2019-04-19 11:23:14 GMT 55.909332 -9.727561 41,000 120 500 0
2019-04-19 11:23:10 GMT 55.913658 -9.740667 41,000 120 501 -64
2019-04-19 11:23:03 GMT 55.921738 -9.765181 40,975 120 501 0
2019-04-19 11:22:59 GMT 55.926178 -9.778581 41,000 120 501 0
2019-04-19 11:22:53 GMT 55.934517 -9.803753 40,975 120 501 0
2019-04-19 11:22:50 GMT 55.937542 -9.813023 41,000 120 501 64
2019-04-19 11:22:43 GMT 55.949615 -9.849576 41,000 120 502 64
2019-04-19 11:22:39 GMT 55.949615 -9.849576 40,975 120 502 64
2019-04-19 11:22:32 GMT 55.961700 -9.886236 40,975 120 501 0
2019-04-19 11:22:29 GMT 55.961700 -9.886236 40,975 120 501 -64
2019-04-19 11:22:22 GMT 55.970734 -9.913101 40,975 120 501 -64
2019-04-19 11:22:19 GMT 55.973804 -9.922371 40,975 120 500 0
2019-04-19 11:22:11 GMT 55.983673 -9.951699 41,000 121 500 -64
2019-04-19 11:22:08 GMT 55.986511 -9.960105 40,975 121 500 -64
2019-04-19 11:22:01 GMT 55.996445 -9.988903 40,975 121 499 0
2019-04-19 11:21:58 GMT 55.998478 -9.994812 40,975 121 499 0
2019-04-19 11:21:48 GMT 56.010860 -10.030432 41,000 121 498 -64
2019-04-19 11:21:38 GMT 56.023293 -10.065880 41,000 122 497 -64
2019-04-19 11:21:28 GMT 56.035904 -10.101596 40,975 122 497 0
2019-04-19 11:21:18 GMT 56.048355 -10.136885 40,975 122 496 64
2019-04-19 11:21:07 GMT 56.060905 -10.172567 41,000 122 496 0
2019-04-19 11:20:56 GMT 56.074173 -10.210377 40,975 122 496 0
2019-04-19 11:20:49 GMT 56.083191 -10.236012 40,975 122 496 -64
2019-04-19 11:20:46 GMT 56.086853 -10.246416 40,975 122 496 -64
2019-04-19 11:20:35 GMT 56.100449 -10.285117 41,000 122 494 0
2019-04-19 11:20:26 GMT 56.111740 -10.317192 41,000 122 494 0
2019-04-19 11:20:15 GMT 56.124207 -10.352783 41,000 121 493 -64
2019-04-19 11:20:04 GMT 56.137531 -10.391178 40,975 121 493 0
2019-04-19 11:19:57 GMT 56.149246 -10.424694 40,975 121 492 0
2019-04-19 11:19:44 GMT 56.162342 -10.462332 40,975 121 492 0
2019-04-19 11:19:33 GMT 56.175331 -10.499582 40,975 121 492 -64
2019-04-19 11:19:22 GMT 56.188271 -10.536833 41,000 121 492 0
2019-04-19 11:19:14 GMT 56.197495 -10.563521 40,975 121 492 -64
2019-04-19 11:19:11 GMT 56.201214 -10.574169 40,975 121 492 -64
2019-04-19 11:19:02 GMT 56.212601 -10.606967 40,975 121 491 -64
2019-04-19 11:18:53 GMT 56.222767 -10.636396 40,975 121 491 -64
2019-04-19 11:18:50 GMT 56.226242 -10.646418 40,975 121 491 0
2019-04-19 11:18:43 GMT 56.235031 -10.671969 41,000 121 491 0
2019-04-19 11:18:40 GMT 56.239201 -10.684118 40,975 121 491 0
2019-04-19 11:18:33 GMT 56.247162 -10.707259 40,975 121 491 -64
2019-04-19 11:18:29 GMT 56.250652 -10.717335 41,000 121 491 -64
2019-04-19 11:18:23 GMT 56.258751 -10.740852 40,975 121 491 -64
2019-04-19 11:18:20 GMT 56.263035 -10.753298 41,000 121 491 -64
2019-04-19 11:18:12 GMT 56.276115 -10.791492 41,000 121 492 -64
2019-04-19 11:18:09 GMT 56.276115 -10.791492 41,000 121 492 0
2019-04-19 11:17:59 GMT 56.287521 -10.824795 41,000 121 492 0
2019-04-19 11:17:52 GMT 56.295502 -10.848167 41,000 121 492 0
2019-04-19 11:17:49 GMT 56.299625 -10.860329 41,000 121 492 64
2019-04-19 11:17:42 GMT 56.307724 -10.884018 40,975 121 494 0
2019-04-19 11:17:37 GMT 56.312119 -10.896939 40,975 121 493 64
2019-04-19 11:17:31 GMT 56.319717 -10.919245 40,975 121 493 0
2019-04-19 11:17:28 GMT 56.325089 -10.935001 40,975 121 494 0
2019-04-19 11:17:21 GMT 56.332123 -10.955616 40,975 121 494 -64
2019-04-19 11:17:16 GMT 56.339428 -10.976887 41,000 121 494 0
2019-04-19 11:17:11 GMT 56.344299 -10.991239 41,000 121 493 -64
2019-04-19 11:17:05 GMT 56.351440 -11.012213 41,000 121 495 -64
2019-04-19 11:16:58 GMT 56.359676 -11.036367 41,000 121 494 -64
2019-04-19 11:16:55 GMT 56.363728 -11.048298 41,000 121 494 0
2019-04-19 11:16:49 GMT 56.370617 -11.068640 41,000 121 494 -64
2019-04-19 11:16:45 GMT 56.375412 -11.082630 41,000 121 494 -64
2019-04-19 11:16:40 GMT 56.381092 -11.099539 41,000 121 494 0
2019-04-19 11:16:33 GMT 56.388611 -11.121660 41,000 121 495 -64
2019-04-19 11:16:30 GMT 56.393242 -11.135330 41,000 121 495 -64
2019-04-19 11:16:23 GMT 56.401474 -11.159612 41,000 121 496 64
2019-04-19 11:16:19 GMT 56.405777 -11.172347 40,975 121 496 64
2019-04-19 11:16:13 GMT 56.415024 -11.199812 40,975 121 497 0
2019-04-19 11:16:09 GMT 56.417404 -11.206887 40,975 121 497 0
2019-04-19 11:15:59 GMT 56.429810 -11.243758 40,975 121 498 0
2019-04-19 11:15:48 GMT 56.443359 -11.284124 41,000 121 498 -64
2019-04-19 11:15:39 GMT 56.454071 -11.316001 40,975 121 498 64
2019-04-19 11:15:26 GMT 56.469498 -11.362194 40,975 121 498 64
2019-04-19 11:15:19 GMT 56.478058 -11.387745 41,000 121 498 -64
2019-04-19 11:15:16 GMT 56.480804 -11.395912 41,000 121 498 -64
2019-04-19 11:15:06 GMT 56.492844 -11.431857 41,000 121 498 -64
2019-04-19 11:14:56 GMT 56.505058 -11.468439 41,000 120 497 0
2019-04-19 11:14:45 GMT 56.518047 -11.507578 41,000 120 497 64
2019-04-19 11:14:35 GMT 56.529873 -11.543198 40,975 121 498 64
2019-04-19 11:14:25 GMT 56.541641 -11.578508 40,975 121 498 0
2019-04-19 11:14:14 GMT 56.553894 -11.615295 41,000 120 499 -64
2019-04-19 11:14:04 GMT 56.566696 -11.653833 41,000 121 498 0
2019-04-19 11:13:54 GMT 56.578400 -11.689120 41,000 120 497 -64
2019-04-19 11:13:43 GMT 56.590897 -11.726990 41,000 120 498 -64
2019-04-19 11:13:33 GMT 56.603119 -11.764126 40,975 120 497 64
2019-04-19 11:13:25 GMT 56.612362 -11.792406 40,975 120 496 64
2019-04-19 11:13:22 GMT 56.615204 -11.800911 40,975 120 497 0
2019-04-19 11:13:15 GMT 56.624222 -11.828413 41,000 120 496 0
2019-04-19 11:13:12 GMT 56.627289 -11.837683 41,000 120 496 -64
2019-04-19 11:13:04 GMT 56.636848 -11.866563 41,000 120 496 64
2019-04-19 11:12:52 GMT 56.652073 -11.912901 40,975 120 496 0
2019-04-19 11:12:41 GMT 56.664139 -11.949692 41,000 120 495 0
2019-04-19 11:12:31 GMT 56.676559 -11.987945 41,000 120 494 0
2019-04-19 11:12:23 GMT 56.684704 -12.012841 41,000 120 494 0
2019-04-19 11:12:20 GMT 56.689129 -12.026397 41,000 120 493 0
2019-04-19 11:12:10 GMT 56.701183 -12.063431 41,000 120 493 -64
2019-04-19 11:12:02 GMT 56.713760 -12.102213 41,000 120 492 0
2019-04-19 11:11:59 GMT 56.713760 -12.102213 41,000 120 492 0
2019-04-19 11:11:52 GMT 56.721062 -12.124653 41,000 120 492 0
2019-04-19 11:11:49 GMT 56.725067 -12.137146 41,000 120 492 0
2019-04-19 11:11:42 GMT 56.732143 -12.158764 41,000 120 492 0
2019-04-19 11:11:39 GMT 56.736519 -12.172320 40,975 120 492 0
2019-04-19 11:11:32 GMT 56.744106 -12.195799 40,975 120 492 0
2019-04-19 11:11:28 GMT 56.748482 -12.209355 40,975 120 492 64
2019-04-19 11:11:22 GMT 56.755508 -12.231045 41,000 120 491 64
2019-04-19 11:11:17 GMT 56.761002 -12.248125 40,975 120 491 0
2019-04-19 11:11:07 GMT 56.772491 -12.283659 41,000 120 491 -64
2019-04-19 11:10:58 GMT 56.782463 -12.314611 41,000 120 490 -64
2019-04-19 11:10:48 GMT 56.794693 -12.352581 41,000 120 488 0
2019-04-19 11:10:38 GMT 56.805740 -12.386996 40,975 120 488 64
2019-04-19 11:10:28 GMT 56.817215 -12.422791 41,000 120 488 -64
2019-04-19 11:10:20 GMT 56.826408 -12.451497 41,000 120 488 -64
2019-04-19 11:10:10 GMT 56.837860 -12.487335 41,000 120 487 -64
2019-04-19 11:09:59 GMT 56.849545 -12.523794 40,975 120 487 0
2019-04-19 11:09:49 GMT 56.861092 -12.559854 41,000 120 486 0
2019-04-19 11:09:44 GMT 56.867374 -12.579700 41,000 120 485 -64
2019-04-19 11:09:38 GMT 56.873241 -12.598040 41,000 120 485 0
2019-04-19 11:09:28 GMT 56.884552 -12.633762 41,000 120 484 0
2019-04-19 11:09:18 GMT 56.895679 -12.668654 40,975 120 484 64
2019-04-19 11:09:08 GMT 56.907738 -12.706840 41,000 120 484 0
2019-04-19 11:08:57 GMT 56.919296 -12.743196 41,000 120 484 0
2019-04-19 11:08:47 GMT 56.930237 -12.777872 40,975 120 484 0
2019-04-19 11:08:21 GMT 56.960293 -12.873053 40,975 120 483 -64
2019-04-19 11:08:16 GMT 56.964844 -12.887564 41,000 119 483 0
2019-04-19 11:08:00 GMT 56.983521 -12.947044 41,000 119 484 64
2019-04-19 11:07:56 GMT 56.987854 -12.960855 40,975 119 484 64
2019-04-19 11:07:45 GMT 56.999630 -12.998510 40,975 119 484 0
2019-04-19 11:07:35 GMT 57.010712 -13.034506 40,975 119 484 -64
2019-04-19 11:07:25 GMT 57.022247 -13.071327 41,000 122 482 0
2019-04-19 11:07:14 GMT 57.036026 -13.108320 41,000 126 480 -64
2019-04-19 11:07:03 GMT 57.050262 -13.140249 41,000 131 476 -64
2019-04-19 11:06:54 GMT 57.065174 -13.169329 40,975 133 476 0
2019-04-19 11:06:44 GMT 57.080154 -13.198271 40,975 133 477 0
2019-04-19 11:05:03 GMT 57.233509 -13.496438 41,000 133 481 0
2019-04-19 11:05:00 GMT 57.237743 -13.504855 41,000 133 481 0
We lost coverage of the aircraft here for a total of 333 minutes
2019-04-19 05:31:52 GMT 54.622971 -102.356552 39,000 63 517 -64
2019-04-19 05:30:57 GMT 54.562855 -102.563446 38,975 63 516 -64
2019-04-19 05:30:48 GMT 54.554581 -102.591621 39,000 63 516 -64
2019-04-19 05:30:32 GMT 54.537094 -102.651566 39,000 63 514 -128
2019-04-19 05:30:14 GMT 54.517227 -102.719582 38,975 63 517 0
2019-04-19 05:29:59 GMT 54.501637 -102.772774 39,000 63 518 -64
2019-04-19 05:29:38 GMT 54.478222 -102.851921 39,000 63 518 -64
2019-04-19 05:29:28 GMT 54.468025 -102.886383 39,000 63 518 -64
2019-04-19 05:29:23 GMT 54.461555 -102.908272 39,000 63 518 -64
2019-04-19 05:29:11 GMT 54.449825 -102.947807 39,000 62 518 -64
2019-04-19 05:29:01 GMT 54.438698 -102.985092 38,975 62 518 -64
2019-04-19 05:28:52 GMT 54.427620 -103.022377 38,975 62 518 -64
2019-04-19 05:28:30 GMT 54.404663 -103.099419 39,000 62 518 -64
2019-04-19 05:28:20 GMT 54.393215 -103.137733 38,975 62 518 -64
2019-04-19 05:28:08 GMT 54.381252 -103.177849 39,000 62 519 -64
2019-04-19 05:27:57 GMT 54.368225 -103.221321 38,975 62 519 -64
2019-04-19 05:27:48 GMT 54.358257 -103.254585 39,000 62 520 -64
2019-04-19 05:27:36 GMT 54.345657 -103.296608 38,975 62 520 -64
2019-04-19 05:27:26 GMT 54.334671 -103.333122 38,975 62 521 -64
2019-04-19 05:27:16 GMT 54.322952 -103.371979 38,975 62 522 0
2019-04-19 05:27:05 GMT 54.311798 -103.408981 38,975 62 522 -64
2019-04-19 05:26:55 GMT 54.299698 -103.448883 39,000 62 522 -64
2019-04-19 05:26:44 GMT 54.287750 -103.488380 39,000 62 522 -64
2019-04-19 05:26:32 GMT 54.275986 -103.527153 39,000 62 522 -64
2019-04-19 05:26:22 GMT 54.263947 -103.566544 38,975 62 521 0
2019-04-19 05:26:12 GMT 54.252026 -103.605598 38,975 62 521 0
2019-04-19 05:26:01 GMT 54.239361 -103.647118 38,975 62 521 -64
2019-04-19 05:25:50 GMT 54.228470 -103.682823 39,000 62 520 -64
2019-04-19 05:25:38 GMT 54.215652 -103.724510 38,975 62 519 -64
2019-04-19 05:25:28 GMT 54.204163 -103.762184 39,000 62 518 -64
2019-04-19 05:25:18 GMT 54.192215 -103.801262 39,000 62 519 -64
2019-04-19 05:25:07 GMT 54.179401 -103.842857 38,975 62 519 -64
2019-04-19 05:24:56 GMT 54.167450 -103.881538 39,000 62 520 -64
2019-04-19 05:24:44 GMT 54.155136 -103.921326 38,975 62 520 -64
2019-04-19 05:24:33 GMT 54.143051 -103.960327 38,975 62 520 -128
2019-04-19 05:24:24 GMT 54.131546 -103.997551 39,000 62 520 -64
2019-04-19 05:24:13 GMT 54.119568 -104.036133 38,975 62 519 0
2019-04-19 05:24:03 GMT 54.107895 -104.073647 39,000 62 519 -64
2019-04-19 05:23:52 GMT 54.096039 -104.111862 39,000 62 519 0
2019-04-19 05:23:40 GMT 54.083496 -104.152115 39,000 62 518 -64
2019-04-19 05:23:30 GMT 54.071728 -104.189896 39,000 62 518 -64
2019-04-19 05:23:20 GMT 54.060322 -104.226570 39,000 62 519 0
2019-04-19 05:23:08 GMT 54.048172 -104.265427 39,000 62 519 -64
2019-04-19 05:22:59 GMT 54.036346 -104.303177 39,000 61 520 -64
2019-04-19 05:22:48 GMT 54.023895 -104.342728 39,000 61 520 64
2019-04-19 05:22:37 GMT 54.012234 -104.379814 39,000 61 521 -64
2019-04-19 05:22:27 GMT 54.000175 -104.418022 38,975 61 523 64
2019-04-19 05:22:16 GMT 53.987469 -104.458412 38,975 61 523 -64
2019-04-19 05:22:05 GMT 53.974201 -104.500175 38,975 61 522 -64
2019-04-19 05:21:53 GMT 53.962006 -104.538757 38,975 61 522 -64
2019-04-19 05:21:43 GMT 53.950226 -104.575706 39,000 61 521 -128
2019-04-19 05:21:32 GMT 53.938293 -104.613388 39,000 61 520 -64
2019-04-19 05:21:22 GMT 53.925880 -104.652367 39,000 61 519 -64
2019-04-19 05:21:11 GMT 53.913357 -104.691711 38,975 61 519 0
2019-04-19 05:20:59 GMT 53.901485 -104.728867 38,975 61 519 0
2019-04-19 05:20:49 GMT 53.889038 -104.767746 39,000 61 520 -64
2019-04-19 05:20:39 GMT 53.877277 -104.804565 38,975 61 520 0
2019-04-19 05:20:27 GMT 53.864548 -104.844254 38,975 61 521 0
2019-04-19 05:20:18 GMT 53.852932 -104.880333 39,000 61 522 -64
2019-04-19 05:20:06 GMT 53.839340 -104.922585 39,000 61 522 -64
2019-04-19 05:19:56 GMT 53.827194 -104.960243 38,975 61 524 0
2019-04-19 05:19:45 GMT 53.814571 -104.999245 39,000 61 523 -64
2019-04-19 05:19:34 GMT 53.801353 -105.040123 39,000 61 524 -64
2019-04-19 05:19:22 GMT 53.789948 -105.075264 39,000 61 525 -64
2019-04-19 05:19:12 GMT 53.777424 -105.114037 39,000 61 524 0
2019-04-19 05:19:02 GMT 53.764709 -105.153053 39,000 61 525 0
2019-04-19 05:18:51 GMT 53.752121 -105.191818 39,000 61 525 -64
2019-04-19 05:18:39 GMT 53.739346 -105.230927 38,975 61 526 0
2019-04-19 05:18:29 GMT 53.726578 -105.269974 39,000 61 526 -64
2019-04-19 05:18:19 GMT 53.714859 -105.305916 38,975 61 527 -64
2019-04-19 05:18:07 GMT 53.701591 -105.346443 38,975 61 526 64
2019-04-19 05:17:58 GMT 53.689728 -105.382584 39,000 61 526 -64
2019-04-19 05:17:46 GMT 53.677048 -105.421349 39,000 61 527 -64
2019-04-19 05:17:35 GMT 53.664322 -105.460121 39,000 61 528 0
2019-04-19 05:17:26 GMT 53.651550 -105.498802 38,975 60 527 0
2019-04-19 05:17:14 GMT 53.639351 -105.535721 39,000 61 528 -64
2019-04-19 05:17:04 GMT 53.625618 -105.577324 39,000 60 527 0
2019-04-19 05:16:53 GMT 53.613190 -105.614868 38,975 60 527 -64
2019-04-19 05:16:41 GMT 53.599915 -105.654808 38,975 60 526 0
2019-04-19 05:16:31 GMT 53.587143 -105.693260 39,000 60 526 -64
2019-04-19 05:16:21 GMT 53.574688 -105.730644 38,975 60 526 0
2019-04-19 05:16:09 GMT 53.562241 -105.767967 39,000 60 526 -64
2019-04-19 05:15:58 GMT 53.549149 -105.807053 39,000 60 525 -64
2019-04-19 05:15:49 GMT 53.536331 -105.845421 39,000 60 525 -64
2019-04-19 05:15:38 GMT 53.524136 -105.881950 39,000 60 526 -64
2019-04-19 05:15:27 GMT 53.511749 -105.918869 39,000 60 526 -64
2019-04-19 05:15:15 GMT 53.497879 -105.960388 38,975 60 525 -64
2019-04-19 05:15:04 GMT 53.485336 -105.997978 39,000 60 524 -64
2019-04-19 05:14:55 GMT 53.473206 -106.033997 38,975 60 524 0
2019-04-19 05:14:44 GMT 53.459801 -106.073891 38,975 60 523 -64
2019-04-19 05:14:33 GMT 53.447414 -106.110397 38,975 60 522 -64
2019-04-19 05:14:23 GMT 53.435265 -106.146103 39,000 60 520 -64
2019-04-19 05:14:11 GMT 53.422119 -106.184898 38,975 60 519 -64
2019-04-19 05:14:01 GMT 53.409805 -106.221153 39,000 60 519 -64
2019-04-19 05:13:51 GMT 53.397373 -106.257744 39,000 60 518 -64
2019-04-19 05:13:40 GMT 53.384766 -106.294922 38,975 60 517 -64
2019-04-19 05:13:29 GMT 53.371395 -106.334084 39,000 60 516 -64
2019-04-19 05:13:19 GMT 53.359039 -106.370491 38,975 60 516 -64
2019-04-19 05:13:07 GMT 53.346954 -106.405724 38,975 60 515 -64
2019-04-19 05:12:58 GMT 53.334526 -106.441933 39,000 60 515 -64
2019-04-19 05:12:47 GMT 53.321770 -106.479172 39,000 60 514 -64
2019-04-19 05:12:36 GMT 53.308868 -106.516609 39,000 60 514 -64
2019-04-19 05:12:26 GMT 53.296680 -106.551956 39,000 60 513 -64
2019-04-19 05:12:14 GMT 53.283924 -106.588951 39,000 60 514 0
2019-04-19 05:12:03 GMT 53.271400 -106.625305 39,000 59 513 -64
2019-04-19 05:11:54 GMT 53.258320 -106.663025 38,975 59 514 -64
2019-04-19 05:11:43 GMT 53.245983 -106.698654 39,000 60 514 -64
2019-04-19 05:11:32 GMT 53.232834 -106.736732 38,975 60 514 -64
2019-04-19 05:11:21 GMT 53.219788 -106.774475 39,000 60 515 -64
2019-04-19 05:11:10 GMT 53.206833 -106.811829 39,000 59 515 -64
2019-04-19 05:10:59 GMT 53.194336 -106.847847 39,000 59 515 -64
2019-04-19 05:10:49 GMT 53.181427 -106.884811 38,975 59 515 0
2019-04-19 05:10:38 GMT 53.168613 -106.921532 38,975 59 516 -64
2019-04-19 05:10:27 GMT 53.155441 -106.959175 38,975 59 516 0
2019-04-19 05:10:16 GMT 53.142609 -106.995773 38,975 59 516 -64
2019-04-19 05:10:06 GMT 53.129974 -107.031715 38,975 59 516 -64
2019-04-19 05:09:55 GMT 53.116291 -107.070656 39,000 59 515 -64
2019-04-19 05:09:44 GMT 53.103928 -107.105873 38,975 59 515 -64
2019-04-19 05:09:34 GMT 53.091156 -107.141953 38,975 59 515 -64
2019-04-19 05:09:22 GMT 53.078659 -107.177429 39,000 59 515 -128
2019-04-19 05:09:12 GMT 53.065659 -107.214127 39,000 59 515 -64
2019-04-19 05:09:02 GMT 53.053024 -107.249870 38,975 59 515 -64
2019-04-19 05:08:50 GMT 53.040115 -107.286224 39,000 59 515 -64
2019-04-19 05:08:41 GMT 53.027142 -107.322693 39,000 59 516 0
2019-04-19 05:08:30 GMT 53.014572 -107.358086 38,975 59 516 0
2019-04-19 05:08:19 GMT 53.001259 -107.395515 38,975 59 517 0
2019-04-19 05:08:08 GMT 52.987839 -107.433319 39,000 59 516 -64
2019-04-19 05:07:57 GMT 52.975376 -107.468338 39,000 59 515 -64
2019-04-19 05:07:47 GMT 52.962662 -107.503891 39,000 59 515 -64
2019-04-19 05:07:36 GMT 52.949215 -107.541397 38,975 59 515 0
2019-04-19 05:07:25 GMT 52.936600 -107.576637 38,975 59 515 -64
2019-04-19 05:07:15 GMT 52.923340 -107.613525 39,000 59 516 -64
2019-04-19 05:07:04 GMT 52.910297 -107.649773 39,000 59 516 -64
2019-04-19 05:06:52 GMT 52.897400 -107.685631 39,000 59 516 -64
2019-04-19 05:06:43 GMT 52.884228 -107.722206 38,975 59 517 0
2019-04-19 05:06:32 GMT 52.871613 -107.757034 38,975 59 518 -64
2019-04-19 05:06:21 GMT 52.858109 -107.794342 38,975 59 518 -64
2019-04-19 05:06:11 GMT 52.844833 -107.831039 38,975 59 518 -64
2019-04-19 05:06:00 GMT 52.831715 -107.867302 38,975 58 518 -64
2019-04-19 05:05:48 GMT 52.816818 -107.908173 39,000 59 517 -64
2019-04-19 05:05:34 GMT 52.800014 -107.954483 39,000 59 516 -64
2019-04-19 05:05:23 GMT 52.786514 -107.991600 38,975 59 517 0
2019-04-19 05:05:13 GMT 52.773651 -108.027039 38,975 58 517 -64
2019-04-19 05:05:02 GMT 52.760677 -108.062462 38,975 58 517 -64
2019-04-19 05:04:51 GMT 52.747597 -108.098091 39,000 58 516 -64
2019-04-19 05:04:41 GMT 52.734562 -108.133720 39,000 58 516 -64
2019-04-19 05:04:30 GMT 52.721603 -108.169022 39,000 58 516 -128
2019-04-19 05:04:18 GMT 52.707596 -108.207245 39,000 58 515 -64
2019-04-19 05:04:08 GMT 52.695129 -108.241074 39,000 58 514 -64
2019-04-19 05:03:58 GMT 52.681229 -108.278809 38,975 58 513 -64
2019-04-19 05:03:46 GMT 52.668549 -108.313110 39,000 58 512 -64
2019-04-19 05:03:42 GMT 52.662277 -108.330078 39,000 58 512 -64
2019-04-19 05:03:37 GMT 52.654907 -108.349991 38,975 58 511 0
2019-04-19 05:03:30 GMT 52.649139 -108.365532 38,975 58 511 -64
2019-04-19 05:03:26 GMT 52.642761 -108.382797 38,975 58 511 0
2019-04-19 05:03:15 GMT 52.629639 -108.418198 38,975 58 511 0
2019-04-19 05:03:05 GMT 52.616135 -108.454666 38,975 58 511 -64
2019-04-19 05:02:53 GMT 52.603424 -108.488655 39,000 58 511 -64
2019-04-19 05:02:43 GMT 52.589493 -108.526001 39,000 58 511 0
2019-04-19 05:02:33 GMT 52.577454 -108.558426 38,975 58 512 -64
2019-04-19 05:02:25 GMT 52.568573 -108.582230 38,975 58 512 -64
2019-04-19 05:02:22 GMT 52.564362 -108.593445 39,000 58 512 0
2019-04-19 05:02:13 GMT 52.552402 -108.625511 39,000 58 510 -64
2019-04-19 05:02:06 GMT 52.544952 -108.645287 39,000 58 510 -64
2019-04-19 05:02:00 GMT 52.537399 -108.665390 38,975 58 510 -64
2019-04-19 05:01:56 GMT 52.531219 -108.681870 39,000 58 511 -64
2019-04-19 05:01:45 GMT 52.517021 -108.719841 38,975 58 512 -64
2019-04-19 05:01:34 GMT 52.504257 -108.753891 39,000 58 513 -64
2019-04-19 05:01:23 GMT 52.490253 -108.791176 38,975 58 512 -64
2019-04-19 05:01:12 GMT 52.476570 -108.827431 39,000 58 512 -64
2019-04-19 05:01:01 GMT 52.463394 -108.862350 39,000 58 512 -64
2019-04-19 05:00:50 GMT 52.450333 -108.896866 39,000 58 511 -64
2019-04-19 05:00:40 GMT 52.437046 -108.932030 38,975 58 511 -64
2019-04-19 05:00:28 GMT 52.422958 -108.969116 38,975 58 511 -64
2019-04-19 05:00:18 GMT 52.410553 -109.001923 39,000 58 511 0
2019-04-19 05:00:08 GMT 52.396866 -109.038010 38,975 58 511 0
2019-04-19 05:00:03 GMT 52.390869 -109.053726 38,975 58 511 -64
2019-04-19 04:59:57 GMT 52.384369 -109.070816 39,000 58 511 -64
2019-04-19 04:59:50 GMT 52.374893 -109.095688 38,975 58 511 -64
2019-04-19 04:59:46 GMT 52.370522 -109.107185 38,975 58 511 -64
2019-04-19 04:59:40 GMT 52.362946 -109.127121 39,000 58 511 0
2019-04-19 04:59:36 GMT 52.357582 -109.141167 39,000 58 511 -64
2019-04-19 04:59:29 GMT 52.350449 -109.159851 39,000 58 510 -64
2019-04-19 04:59:18 GMT 52.336632 -109.196098 38,975 58 511 0
2019-04-19 04:59:09 GMT 52.323925 -109.229446 38,975 57 510 -64
2019-04-19 04:58:57 GMT 52.309677 -109.266563 38,975 57 509 -64
2019-04-19 04:58:47 GMT 52.296131 -109.301643 38,975 57 509 0
2019-04-19 04:58:35 GMT 52.282352 -109.337273 38,975 57 509 -64
2019-04-19 04:58:27 GMT 52.271366 -109.365837 39,000 57 509 -64
2019-04-19 04:58:15 GMT 52.256096 -109.405388 39,000 57 509 -64
2019-04-19 04:58:03 GMT 52.242783 -109.439758 39,000 57 509 -64
2019-04-19 04:57:55 GMT 52.231384 -109.469223 39,000 57 509 -64
2019-04-19 04:57:52 GMT 52.229095 -109.475021 39,000 57 509 -64
2019-04-19 04:57:44 GMT 52.217606 -109.504776 38,975 57 509 -64
2019-04-19 04:57:35 GMT 52.206474 -109.533531 38,975 57 508 -64
2019-04-19 04:57:32 GMT 52.201958 -109.545227 38,975 57 508 -64
2019-04-19 04:57:21 GMT 52.188412 -109.580070 38,975 57 508 -64
2019-04-19 04:57:13 GMT 52.179291 -109.603577 38,975 57 508 -64
2019-04-19 04:57:10 GMT 52.175262 -109.613953 38,975 57 508 -64
2019-04-19 04:57:02 GMT 52.165134 -109.640022 39,000 57 508 -64
2019-04-19 04:56:59 GMT 52.161530 -109.649429 39,000 57 508 -64
2019-04-19 04:56:49 GMT 52.147350 -109.685852 39,000 57 508 -64
2019-04-19 04:56:41 GMT 52.139343 -109.706490 38,975 57 507 -64
2019-04-19 04:56:38 GMT 52.133804 -109.720619 38,975 57 508 0
2019-04-19 04:56:31 GMT 52.126263 -109.739922 38,975 57 509 -64
2019-04-19 04:56:27 GMT 52.119698 -109.756638 39,000 57 509 -64
2019-04-19 04:56:20 GMT 52.112904 -109.773979 39,000 57 509 0
2019-04-19 04:56:16 GMT 52.107082 -109.788811 38,975 57 509 64
2019-04-19 04:56:08 GMT 52.097492 -109.813370 38,975 57 509 -64
2019-04-19 04:56:04 GMT 52.093212 -109.824280 39,000 57 510 -64
2019-04-19 04:56:00 GMT 52.079990 -109.857788 39,000 57 510 -64
2019-04-19 04:55:55 GMT 52.079990 -109.857788 39,000 57 510 0
2019-04-19 04:55:49 GMT 52.073147 -109.875130 38,975 57 510 64
2019-04-19 04:55:44 GMT 52.066071 -109.893181 38,975 57 511 128
2019-04-19 04:55:37 GMT 52.058483 -109.912560 38,950 57 510 192
2019-04-19 04:55:33 GMT 52.052765 -109.927139 38,950 57 511 384
2019-04-19 04:55:27 GMT 52.046333 -109.943558 38,900 57 511 512
2019-04-19 04:55:21 GMT 52.038574 -109.963226 38,825 57 511 640
2019-04-19 04:55:17 GMT 52.033493 -109.976120 38,800 57 511 512
2019-04-19 04:55:11 GMT 52.024841 -109.998093 38,750 57 511 384
2019-04-19 04:55:06 GMT 52.018867 -110.013245 38,700 57 510 448
2019-04-19 04:55:01 GMT 52.011791 -110.031212 38,650 57 510 576
2019-04-19 04:54:56 GMT 52.006718 -110.044083 38,625 57 510 704
2019-04-19 04:54:49 GMT 51.998199 -110.065689 38,525 57 510 640
2019-04-19 04:54:46 GMT 51.992985 -110.078850 38,475 57 510 576
2019-04-19 04:54:40 GMT 51.984467 -110.100403 38,425 57 510 512
2019-04-19 04:54:34 GMT 51.979485 -110.112907 38,400 57 510 448
2019-04-19 04:54:29 GMT 51.971237 -110.133743 38,325 57 510 512
2019-04-19 04:54:25 GMT 51.966156 -110.146561 38,300 57 510 576
2019-04-19 04:54:18 GMT 51.957886 -110.167366 38,225 57 510 576
2019-04-19 04:54:13 GMT 51.952148 -110.181732 38,175 57 509 768
2019-04-19 04:54:08 GMT 51.943497 -110.203552 38,050 57 510 1152
2019-04-19 04:54:05 GMT 51.941078 -110.209663 38,025 57 511 1152
2019-04-19 04:54:01 GMT 51.936356 -110.221481 37,950 57 512 1088
2019-04-19 04:53:57 GMT 51.930450 -110.236282 37,850 57 512 1024
2019-04-19 04:53:54 GMT 51.927254 -110.244270 37,825 57 512 1088
2019-04-19 04:53:51 GMT 51.923389 -110.253922 37,750 57 512 1152
2019-04-19 04:53:46 GMT 51.915195 -110.274559 37,625 57 513 1280
2019-04-19 04:53:42 GMT 51.912735 -110.280685 37,575 57 514 1152
2019-04-19 04:53:39 GMT 51.908493 -110.291275 37,525 57 514 1024
2019-04-19 04:53:35 GMT 51.902020 -110.307365 37,425 57 514 960
2019-04-19 04:53:30 GMT 51.895706 -110.323181 37,350 57 516 1024
2019-04-19 04:53:23 GMT 51.886871 -110.345192 37,225 57 517 1088
2019-04-19 04:53:18 GMT 51.881584 -110.358429 37,125 57 517 1088
2019-04-19 04:53:11 GMT 51.871078 -110.384689 36,975 57 518 1152
2019-04-19 04:53:08 GMT 51.868469 -110.391144 36,925 57 518 1216
2019-04-19 04:53:02 GMT 51.859985 -110.412292 36,800 57 519 1216
2019-04-19 04:52:58 GMT 51.854492 -110.425873 36,700 57 519 1216
2019-04-19 04:52:50 GMT 51.843784 -110.452576 36,550 56 521 1152
2019-04-19 04:52:47 GMT 51.840500 -110.460701 36,500 56 521 1152
2019-04-19 04:52:41 GMT 51.829353 -110.488358 36,325 57 522 1024
2019-04-19 04:52:35 GMT 51.826080 -110.496552 36,300 57 522 1024
2019-04-19 04:52:29 GMT 51.816101 -110.521347 36,150 56 522 960
2019-04-19 04:52:25 GMT 51.812164 -110.531075 36,100 56 522 960
2019-04-19 04:52:18 GMT 51.802689 -110.554527 36,000 56 521 960
2019-04-19 04:52:15 GMT 51.798752 -110.564331 35,950 56 521 896
2019-04-19 04:52:08 GMT 51.788620 -110.589371 35,825 56 521 896
2019-04-19 04:52:05 GMT 51.785065 -110.598175 35,775 56 521 960
2019-04-19 04:51:59 GMT 51.776413 -110.619629 35,650 56 521 1088
2019-04-19 04:51:56 GMT 51.774033 -110.625496 35,625 56 521 1088
2019-04-19 04:51:53 GMT 51.770599 -110.633957 35,575 56 522 1088
2019-04-19 04:51:47 GMT 51.760574 -110.658676 35,425 56 522 1088
2019-04-19 04:51:44 GMT 51.756638 -110.668472 35,375 56 523 1088
2019-04-19 04:51:38 GMT 51.749142 -110.687027 35,250 56 523 1152
2019-04-19 04:51:35 GMT 51.746490 -110.693512 35,250 56 523 1152
2019-04-19 04:51:32 GMT 51.742813 -110.702591 35,175 56 523 1152
2019-04-19 04:51:25 GMT 51.732880 -110.727043 35,050 56 523 1216
2019-04-19 04:51:22 GMT 51.729172 -110.736176 34,950 56 523 1216
2019-04-19 04:51:17 GMT 51.721527 -110.755028 34,800 56 524 1280
2019-04-19 04:51:14 GMT 51.718746 -110.761871 34,775 56 524 1280
2019-04-19 04:51:11 GMT 51.714741 -110.771637 34,725 56 524 1280
2019-04-19 04:51:05 GMT 51.704685 -110.796432 34,550 56 525 1408
2019-04-19 04:51:01 GMT 51.700836 -110.805878 34,475 56 525 1408
2019-04-19 04:50:54 GMT 51.691372 -110.829086 34,350 56 525 1408
2019-04-19 04:50:51 GMT 51.686691 -110.840546 34,225 56 526 1408
2019-04-19 04:50:42 GMT 51.676708 -110.865021 34,025 56 527 1472
2019-04-19 04:50:39 GMT 51.672707 -110.874863 33,950 56 527 1536
2019-04-19 04:50:33 GMT 51.662933 -110.898819 33,775 56 528 1600
2019-04-19 04:50:30 GMT 51.658905 -110.908615 33,675 56 529 1600
2019-04-19 04:50:22 GMT 51.649246 -110.932297 33,425 56 531 1664
2019-04-19 04:50:19 GMT 51.644943 -110.942833 33,400 56 531 1664
2019-04-19 04:50:12 GMT 51.634811 -110.967560 33,150 56 532 1536
2019-04-19 04:50:09 GMT 51.630482 -110.978165 33,100 56 532 1536
2019-04-19 04:50:00 GMT 51.619637 -111.004562 32,925 56 533 1088
2019-04-19 04:49:57 GMT 51.616241 -111.012840 32,875 56 533 960
2019-04-19 04:49:53 GMT 51.608231 -111.032257 32,800 56 533 960
2019-04-19 04:49:47 GMT 51.601994 -111.047440 32,725 56 532 960
2019-04-19 04:49:41 GMT 51.593994 -111.066803 32,625 56 531 832
2019-04-19 04:49:37 GMT 51.587330 -111.082916 32,550 56 530 960
2019-04-19 04:49:31 GMT 51.579620 -111.101616 32,450 56 530 960
2019-04-19 04:49:25 GMT 51.571918 -111.120300 32,350 56 530 896
2019-04-19 04:49:21 GMT 51.565292 -111.136284 32,275 56 529 896
2019-04-19 04:49:16 GMT 51.559067 -111.151352 32,225 56 528 896
2019-04-19 04:49:09 GMT 51.550964 -111.170876 32,125 56 528 1024
2019-04-19 04:49:05 GMT 51.544785 -111.185875 32,025 56 528 1152
2019-04-19 04:49:00 GMT 51.537376 -111.203842 31,925 56 528 1216
2019-04-19 04:48:55 GMT 51.529835 -111.222000 31,800 56 528 1152
2019-04-19 04:48:49 GMT 51.523365 -111.237640 31,725 56 527 1216
2019-04-19 04:48:43 GMT 51.515945 -111.255501 31,600 56 527 1216
2019-04-19 04:48:39 GMT 51.508793 -111.272736 31,500 56 527 1152
2019-04-19 04:48:33 GMT 51.501812 -111.289597 31,375 56 527 1152
2019-04-19 04:48:28 GMT 51.494110 -111.308128 31,275 56 527 1216
2019-04-19 04:48:22 GMT 51.487518 -111.324005 31,175 56 526 1152
2019-04-19 04:48:18 GMT 51.480652 -111.340569 31,075 56 525 1152
2019-04-19 04:48:11 GMT 51.472717 -111.359634 30,975 56 525 1088
2019-04-19 04:48:06 GMT 51.465820 -111.376129 30,875 56 525 1088
2019-04-19 04:48:02 GMT 51.459091 -111.392311 30,775 56 525 1024
2019-04-19 04:47:57 GMT 51.451309 -111.410942 30,675 56 524 960
2019-04-19 04:47:50 GMT 51.444508 -111.427383 30,575 56 522 1024
2019-04-19 04:47:46 GMT 51.438080 -111.442795 30,525 56 522 1088
2019-04-19 04:47:40 GMT 51.430634 -111.460800 30,425 56 521 1088
2019-04-19 04:47:35 GMT 51.423523 -111.477753 30,325 56 520 960
2019-04-19 04:47:29 GMT 51.416203 -111.495361 30,225 56 519 960
2019-04-19 04:47:25 GMT 51.410103 -111.510010 30,150 56 519 1024
2019-04-19 04:47:18 GMT 51.401962 -111.529419 30,050 56 518 1024
2019-04-19 04:47:13 GMT 51.395599 -111.544708 29,950 56 517 1024
2019-04-19 04:47:09 GMT 51.388271 -111.562119 29,875 56 516 1088
2019-04-19 04:47:03 GMT 51.381660 -111.577911 29,775 56 515 1152
2019-04-19 04:46:56 GMT 51.372757 -111.599045 29,625 56 514 1280
2019-04-19 04:46:53 GMT 51.367599 -111.611328 29,550 56 514 1344
2019-04-19 04:46:46 GMT 51.359528 -111.630524 29,425 56 514 1344
2019-04-19 04:46:36 GMT 51.346527 -111.661324 29,200 56 513 1280
2019-04-19 04:46:32 GMT 51.340321 -111.676102 29,100 56 513 1280
2019-04-19 04:46:26 GMT 51.332359 -111.694946 28,975 55 512 1344
2019-04-19 04:46:21 GMT 51.326263 -111.709290 28,850 55 512 1280
2019-04-19 04:46:16 GMT 51.317688 -111.729622 28,725 55 511 1152
2019-04-19 04:46:05 GMT 51.304337 -111.761169 28,525 56 510 1216
2019-04-19 04:46:00 GMT 51.297409 -111.777725 28,425 56 510 1216
2019-04-19 04:45:54 GMT 51.290314 -111.794571 28,325 56 509 1088
2019-04-19 04:45:50 GMT 51.284924 -111.807327 28,250 56 508 1024
2019-04-19 04:45:44 GMT 51.276947 -111.826271 28,150 56 507 1088
2019-04-19 04:45:40 GMT 51.270584 -111.841507 28,050 56 507 1152
2019-04-19 04:45:33 GMT 51.262859 -111.860199 27,925 56 506 1088
2019-04-19 04:45:29 GMT 51.257504 -111.873245 27,850 56 505 1024
2019-04-19 04:45:22 GMT 51.249592 -111.892548 27,750 56 504 1152
2019-04-19 04:45:19 GMT 51.243446 -111.907425 27,650 56 503 1152
2019-04-19 04:45:12 GMT 51.235931 -111.925667 27,550 56 502 1088
2019-04-19 04:45:08 GMT 51.230850 -111.938065 27,450 56 501 1024
2019-04-19 04:45:02 GMT 51.222473 -111.958405 27,350 56 499 1216
2019-04-19 04:44:58 GMT 51.217518 -111.970291 27,250 56 498 1344
2019-04-19 04:44:51 GMT 51.209015 -111.990768 27,100 56 497 1344
2019-04-19 04:44:47 GMT 51.204063 -112.002640 27,025 56 497 1280
2019-04-19 04:44:40 GMT 51.195557 -112.023064 26,875 56 496 1152
2019-04-19 04:44:37 GMT 51.190655 -112.034912 26,800 56 495 1216
2019-04-19 04:44:29 GMT 51.182091 -112.055511 26,625 56 493 1344
2019-04-19 04:44:26 GMT 51.177574 -112.066422 26,575 56 493 1280
2019-04-19 04:44:19 GMT 51.168495 -112.088089 26,425 56 492 1344
2019-04-19 04:44:16 GMT 51.163982 -112.098923 26,350 56 491 1472
2019-04-19 04:44:08 GMT 51.154949 -112.120514 26,150 56 490 1536
2019-04-19 04:44:05 GMT 51.150787 -112.130402 26,075 56 489 1536
2019-04-19 04:43:58 GMT 51.141914 -112.151642 25,900 56 489 1536
2019-04-19 04:43:55 GMT 51.137741 -112.161499 25,800 56 489 1472
2019-04-19 04:43:48 GMT 51.129349 -112.181549 25,650 56 488 1408
2019-04-19 04:43:44 GMT 51.124969 -112.192009 25,575 56 488 1408
2019-04-19 04:43:37 GMT 51.116360 -112.212601 25,350 56 487 1472
2019-04-19 04:43:34 GMT 51.111511 -112.224228 25,325 56 487 1472
2019-04-19 04:43:25 GMT 51.101696 -112.247772 25,150 56 487 1280
2019-04-19 04:43:22 GMT 51.098145 -112.256371 25,075 56 486 1280
2019-04-19 04:43:16 GMT 51.090225 -112.275375 24,925 56 484 1280
2019-04-19 04:43:13 GMT 51.085785 -112.286064 24,875 56 483 1280
2019-04-19 04:43:06 GMT 51.077179 -112.306770 24,700 56 482 1472
2019-04-19 04:43:02 GMT 51.073288 -112.316277 24,625 56 482 1600
2019-04-19 04:42:52 GMT 51.059509 -112.349236 24,325 56 481 1536
2019-04-19 04:42:44 GMT 51.050533 -112.370682 24,150 56 480 1280
2019-04-19 04:42:41 GMT 51.046902 -112.379456 24,100 56 479 1024
2019-04-19 04:42:34 GMT 51.038223 -112.401047 23,950 59 479 1024
2019-04-19 04:42:31 GMT 51.034744 -112.410851 23,900 61 479 1152
2019-04-19 04:42:22 GMT 51.027306 -112.435150 23,775 67 480 1216
2019-04-19 04:42:19 GMT 51.024464 -112.446289 23,675 70 480 1216
2019-04-19 04:42:12 GMT 51.019684 -112.469345 23,550 74 480 1216
2019-04-19 04:42:09 GMT 51.017990 -112.479515 23,500 76 480 1280
2019-04-19 04:42:02 GMT 51.014690 -112.506790 23,300 82 480 1664
2019-04-19 04:41:58 GMT 51.013962 -112.516182 23,225 84 480 1664
2019-04-19 04:41:49 GMT 51.012829 -112.552338 22,950 91 479 1472
2019-04-19 04:41:41 GMT 51.013943 -112.580338 22,750 96 477 1536
2019-04-19 04:41:37 GMT 51.014595 -112.589340 22,700 96 477 1472
2019-04-19 04:41:28 GMT 51.017258 -112.625671 22,425 96 474 1536
2019-04-19 04:41:20 GMT 51.019299 -112.652893 22,225 96 473 1536
2019-04-19 04:41:17 GMT 51.019958 -112.662125 22,150 96 472 1472
2019-04-19 04:41:06 GMT 51.022648 -112.698135 21,925 96 469 1536
2019-04-19 04:40:56 GMT 51.025360 -112.734650 21,625 96 468 1600
2019-04-19 04:40:47 GMT 51.027328 -112.761223 21,425 96 467 1600
2019-04-19 04:40:44 GMT 51.028141 -112.772446 21,350 96 467 1664
2019-04-19 04:40:37 GMT 51.029984 -112.797226 21,125 96 466 1792
2019-04-19 04:40:34 GMT 51.030609 -112.805634 21,050 96 465 1728
2019-04-19 04:40:27 GMT 51.032516 -112.832031 20,825 96 464 1792
2019-04-19 04:40:24 GMT 51.033218 -112.841492 20,750 96 462 1728
2019-04-19 04:40:16 GMT 51.035065 -112.867371 20,525 96 461 1792
2019-04-19 04:40:13 GMT 51.035915 -112.879791 20,425 96 460 1664
2019-04-19 04:40:06 GMT 51.037628 -112.903603 20,250 96 459 1472
2019-04-19 04:40:03 GMT 51.038177 -112.911613 20,175 96 458 1536
2019-04-19 04:39:53 GMT 51.040695 -112.946281 19,900 96 456 1728
2019-04-19 04:39:45 GMT 51.042755 -112.974861 19,700 96 453 1216
2019-04-19 04:39:42 GMT 51.043224 -112.981110 19,650 96 453 1152
2019-04-19 04:39:31 GMT 51.045788 -113.017273 19,375 96 449 1856
2019-04-19 04:39:21 GMT 51.048252 -113.052597 19,075 96 448 1728
2019-04-19 04:39:13 GMT 51.049931 -113.077393 18,850 96 446 1728
2019-04-19 04:39:09 GMT 51.050720 -113.088806 18,750 96 445 1536
2019-04-19 04:39:01 GMT 51.052303 -113.113098 18,600 95 443 1280
2019-04-19 04:38:58 GMT 51.052956 -113.122787 18,525 95 441 1536
2019-04-19 04:38:52 GMT 51.054565 -113.146858 18,325 96 440 1728
2019-04-19 04:38:48 GMT 51.055374 -113.156815 18,225 98 439 1792
2019-04-19 04:38:41 GMT 51.057983 -113.179550 18,000 102 437 1984
2019-04-19 04:38:38 GMT 51.059334 -113.188934 17,900 104 436 2176
2019-04-19 04:38:28 GMT 51.065247 -113.220825 17,475 109 436 2624
2019-04-19 04:38:19 GMT 51.071064 -113.244705 17,175 113 436 2112
2019-04-19 04:38:15 GMT 51.074230 -113.255768 17,050 115 434 2048
2019-04-19 04:38:07 GMT 51.082890 -113.281631 16,700 120 432 2624
2019-04-19 04:37:59 GMT 51.091129 -113.304138 16,350 120 434 2560
2019-04-19 04:37:55 GMT 51.093658 -113.310982 16,250 120 434 2560
2019-04-19 04:37:48 GMT 51.101349 -113.331917 15,950 120 435 2240
2019-04-19 04:37:45 GMT 51.104599 -113.340752 15,350 119 419 1600
2019-04-19 04:37:38 GMT 51.112404 -113.361969 15,575 120 433 2176
2019-04-19 04:37:35 GMT 51.114635 -113.367996 15,500 120 433 2240
2019-04-19 04:37:25 GMT 51.124924 -113.395920 15,125 120 430 2240
2019-04-19 04:37:14 GMT 51.135635 -113.425079 14,725 120 428 2368
2019-04-19 04:37:04 GMT 51.145920 -113.452988 14,325 120 426 2368
2019-04-19 04:36:55 GMT 51.154392 -113.476257 14,000 120 423 2176
2019-04-19 04:36:51 GMT 51.158115 -113.486481 13,850 119 423 2112
2019-04-19 04:36:45 GMT 51.165024 -113.505547 13,650 119 421 1728
2019-04-19 04:36:42 GMT 51.167908 -113.513634 13,550 119 419 1600
2019-04-19 04:36:34 GMT 51.175156 -113.533554 13,400 119 415 1152
2019-04-19 04:36:31 GMT 51.177933 -113.541252 13,325 119 413 1024
2019-04-19 04:36:24 GMT 51.185444 -113.561935 13,225 120 407 896
2019-04-19 04:36:20 GMT 51.188049 -113.569183 12,800 119 404 896
2019-04-19 04:36:13 GMT 51.195007 -113.588387 13,075 120 397 960
2019-04-19 04:36:10 GMT 51.197388 -113.594917 12,800 119 373 960
2019-04-19 04:36:02 GMT 51.204575 -113.614731 12,925 119 388 832
2019-04-19 04:35:58 GMT 51.207741 -113.623581 12,875 119 383 896
2019-04-19 04:35:52 GMT 51.214211 -113.641586 12,775 119 376 960
2019-04-19 04:35:47 GMT 51.217331 -113.650208 12,725 119 372 960
2019-04-19 04:35:41 GMT 51.223103 -113.666229 12,625 119 366 1088
2019-04-19 04:35:38 GMT 51.225662 -113.673248 12,550 120 362 1088
2019-04-19 04:35:31 GMT 51.231853 -113.690186 12,425 120 356 1152
2019-04-19 04:35:28 GMT 51.234558 -113.697655 11,925 120 350 1024
2019-04-19 04:35:20 GMT 51.240513 -113.713913 12,250 120 345 1024
2019-04-19 04:35:17 GMT 51.242748 -113.720093 12,200 120 343 1600
2019-04-19 04:35:10 GMT 51.249126 -113.737488 11,925 120 340 2240
2019-04-19 04:35:05 GMT 51.259918 -113.766991 11,775 120 339 2240
2019-04-19 04:34:56 GMT 51.259918 -113.766991 11,450 120 336 2240
2019-04-19 04:34:48 GMT 51.265652 -113.782501 11,175 120 334 2432
2019-04-19 04:34:44 GMT 51.268772 -113.791046 11,000 120 333 2368
2019-04-19 04:34:37 GMT 51.273788 -113.804848 10,750 120 332 2112
2019-04-19 04:34:33 GMT 51.276718 -113.812866 10,650 119 331 1792
2019-04-19 04:34:27 GMT 51.281898 -113.827515 10,450 119 328 1472
2019-04-19 04:34:23 GMT 51.284225 -113.834023 10,375 119 325 1792
2019-04-19 04:34:17 GMT 51.289444 -113.849014 10,125 118 323 2880
2019-04-19 04:34:13 GMT 51.292141 -113.856735 9,950 118 323 3200
2019-04-19 04:34:03 GMT 51.299698 -113.878860 9,275 116 330 4864
2019-04-19 04:33:56 GMT 51.303963 -113.895035 8,675 105 343 4544
2019-04-19 04:33:51 GMT 51.305374 -113.903648 8,425 100 348 3840
2019-04-19 04:33:44 GMT 51.306381 -113.922211 8,050 87 354 2368
2019-04-19 04:33:41 GMT 51.306061 -113.929749 7,950 82 354 1920
2019-04-19 04:33:35 GMT 51.303360 -113.948441 7,775 69 349 1344
2019-04-19 04:33:31 GMT 51.301453 -113.956070 7,700 62 346 1408
2019-04-19 04:33:21 GMT 51.292603 -113.977142 7,475 46 334 1216
2019-04-19 04:33:11 GMT 51.280426 -113.992950 7,275 29 318 960
2019-04-19 04:33:03 GMT 51.269794 -114.000778 7,150 18 305 1280
2019-04-19 04:32:59 GMT 51.265411 -114.002975 7,075 15 299 1088
2019-04-19 04:32:52 GMT 51.255692 -114.006271 6,875 7 288 2688
2019-04-19 04:32:48 GMT 51.250381 -114.007263 6,675 5 286 2624
2019-04-19 04:32:42 GMT 51.241722 -114.008636 6,425 5 284 2368
2019-04-19 04:32:38 GMT 51.238045 -114.009171 6,325 5 283 2112
2019-04-19 04:32:31 GMT 51.228104 -114.010544 6,075 4 277 1536
2019-04-19 04:32:27 GMT 51.223148 -114.011307 6,000 5 273 1088
2019-04-19 04:32:21 GMT 51.214958 -114.012375 5,875 4 264 1536
2019-04-19 04:32:16 GMT 51.210346 -114.012985 5,750 4 260 1792
2019-04-19 04:32:09 GMT 51.201317 -114.014130 5,550 4 254 1536
2019-04-19 04:32:05 GMT 51.197128 -114.014664 5,475 4 250 768
2019-04-19 04:31:59 GMT 51.189819 -114.015503 5,425 4 238 256
2019-04-19 04:31:53 GMT 51.183998 -114.016190 5,400 4 229 512
2019-04-19 04:31:46 GMT 51.174736 -114.017334 5,300 4 201 1216
2019-04-19 04:31:43 GMT 51.173759 -114.017487 5,275 4 213 832
2019-04-19 04:31:33 GMT 51.163795 -114.018631 5,125 4 200 1344
2019-04-19 04:31:25 GMT 51.155685 -114.019600 4,850 4 196 2432
2019-04-19 04:31:12 GMT 51.144058 -114.020714 4,325 2 197 2240
2019-04-19 04:31:05 GMT 51.137924 -114.021011 4,125 1 194 1536
2019-04-19 04:31:01 GMT 51.134792 -114.021149 4,025 0 191 1664
2019-04-19 04:30:56 GMT 51.130142 -114.021233 3,875 0 189 1792
2019-04-19 04:30:50 GMT 51.125156 -114.021301 3,750 0 188 1216
2019-04-19 04:30:44 GMT 51.120548 -114.021378 3,650 0 178 128
2019-04-19 04:30:35 GMT 51.113388 -114.021385 3,675 0 156 0
2019-04-19 04:30:32 GMT 51.110958 -114.021378 3,650 0 144 128
2019-04-19 04:30:29 GMT 51.109283 -114.021378 3,650 0 134 64
2019-04-19 04:30:24 GMT 51.106350 -114.021378 3,650 0 118 64
2019-04-19 04:30:19 GMT 51.103252 -114.021355 0 0 96 0
2019-04-19 04:30:13 GMT 51.101372 -114.021362 0 345 76
2019-04-19 04:30:02 GMT 51.098633 -114.021355 0 345 29
2019-04-19 04:29:56 GMT 51.097973 -114.021362 0 345 12
2019-04-19 04:29:53 GMT 51.097832 -114.021378 0 345 10
2019-04-19 04:29:45 GMT 51.097565 -114.021378 0 345 9
2019-04-19 04:29:41 GMT 51.097412 -114.021400 0 337 9
2019-04-19 04:29:31 GMT 51.096970 -114.021149 0 264 10
2019-04-19 04:29:23 GMT 51.096931 -114.020660 0 255 12
2019-04-19 04:29:19 GMT 51.096935 -114.020332 0 255 13
2019-04-19 04:29:12 GMT 51.096920 -114.019547 0 255 13
2019-04-19 04:29:09 GMT 51.096924 -114.019417 0 253 13
2019-04-19 04:28:59 GMT 51.096981 -114.018517 0 222 12
2019-04-19 04:28:49 GMT 51.097378 -114.017990 0 165 13
2019-04-19 04:28:38 GMT 51.098019 -114.017967 0 165 14
2019-04-19 04:28:25 GMT 51.098881 -114.017960 0 165 15
2019-04-19 04:28:14 GMT 51.099689 -114.017967 0 165 17
2019-04-19 04:28:07 GMT 51.100216 -114.017967 0 165 18
2019-04-19 04:28:01 GMT 51.100708 -114.017967 0 165 19
2019-04-19 04:27:52 GMT 51.101578 -114.017967 0 165 19
2019-04-19 04:27:45 GMT 51.102032 -114.017960 0 163 20
2019-04-19 04:27:35 GMT 51.103146 -114.017967 0 165 23
2019-04-19 04:27:24 GMT 51.104336 -114.017990 0 165 26
2019-04-19 04:27:14 GMT 51.105492 -114.017967 0 165 25
2019-04-19 04:27:04 GMT 51.106682 -114.017967 0 165 24
2019-04-19 04:26:53 GMT 51.107792 -114.017967 0 165 23
2019-04-19 04:26:43 GMT 51.108902 -114.017967 0 165 21
2019-04-19 04:26:31 GMT 51.109886 -114.017960 0 165 20
2019-04-19 04:26:21 GMT 51.110844 -114.017944 0 165 18
2019-04-19 04:26:09 GMT 51.111774 -114.017967 0 165 22
2019-04-19 04:26:04 GMT 51.112297 -114.017960 0 163 24
2019-04-19 04:26:00 GMT 51.112839 -114.017967 0 165 26
2019-04-19 04:25:51 GMT 51.113880 -114.017967 0 165 26
2019-04-19 04:25:48 GMT 51.114334 -114.017960 0 165 26
2019-04-19 04:25:35 GMT 51.115688 -114.017952 0 163 25
2019-04-19 04:25:29 GMT 51.116455 -114.017967 0 165 23
2019-04-19 04:25:17 GMT 51.117393 -114.017960 0 165 16
2019-04-19 04:25:07 GMT 51.118034 -114.017967 0 163 11
2019-04-19 04:24:56 GMT 51.118618 -114.017982 0 165 11
2019-04-19 04:24:41 GMT 51.119209 -114.017853 0 194 9
2019-04-19 04:24:33 GMT 51.119465 -114.017616 0 194 9
2019-04-19 04:24:25 GMT 51.119717 -114.017372 0 196 7
2019-04-19 04:24:12 GMT 51.120140 -114.016968 0 196 12
2019-04-19 04:23:57 GMT 51.121067 -114.016129 0 191 16
2019-04-19 04:23:19 GMT 51.123413 -114.015686 0 165 13
2019-04-19 04:23:13 GMT 51.123722 -114.015671 0 165 13
2019-04-19 04:23:09 GMT 51.123940 -114.015671 0 165 13
2019-04-19 04:23:00 GMT 51.124470 -114.015678 0 165 12
2019-04-19 04:22:45 GMT 51.125301 -114.015556 0 196 12
2019-04-19 04:22:37 GMT 51.125565 -114.015274 0 208 11
2019-04-19 04:22:28 GMT 51.125916 -114.014725 0 230 11

Making use of Plane Finder data

You are free to use the raw flight data, aircraft information and images provided in this report for your own purposes provided the data is correctly attributed to Plane Finder. We ask that you please credit Plane Finder and link to planefinder.net in close proximity to the content.

Optionally one of the following logos (no smaller then 150x24px) can be used and must link to planefinder.net

Embedding the Plane Finder map

You are welcome to embed the Plane Finder playback map on your website to offer visitors a more interactive experience. We suggest using the following HTML code:

<iframe src="//planefinder.net/data/report/BA102-G-ZBJC-7700-squawk-2019-04-19/map" width="800" height="600" seamless="seamless"></iframe>

Where our data comes from

Plane Finder has a global network of data feeds and antenna radars that receive data broadcast directly from aircraft. The primary technologies used are ADS-B and MLAT. We also show feeds from the FAA and a FLARM glider feed.

Click here to find out more about the Plane Finder network.

How we collect our data